AA4088 / N270NN 7700 Squawk Report (8th of November, 2019)

Aircraft E75L Reg No. N270NN Age 10 months old
Model Emb-175 Jet engines 2 First flight 11-01-19
Registered 13-02-19 Rollout N/A Delivered 14-02-19
Construction No. 17000775 Line No. N/A Series 200LR
ADSHEX A2A7B5 Airline name American Eagle Airlines Owner Envoy Air
Airfield based Dallas-Fort Worth~TX~N First tracked 2019-02-25 17:12:00

Flight history for N270NN

Route Flight No Date Playback
Chicago Ohare Intl (ORD) - T. F. Green Airport (PVD) AA3365 2019-11-23 02:09:00
Adams Fld (LIT) - Chicago Ohare Intl (ORD) AA3388 2019-11-23 00:44:00
Chicago Ohare Intl (ORD) - Harrisburg Intl (MDT) - Chicago Ohare Intl (ORD) AA3556 2019-11-22 19:46:00
Miami Intl (MIA) - Richmond Intl (RIC) AA3366 2019-11-22 14:37:00
Chicago Ohare Intl (ORD) - Indianapolis Intl (IND) AA3357 2019-11-22 12:27:00
Chicago Ohare Intl (ORD) - Port Columbus (CMH) - Chicago Ohare Intl (ORD) AA4219 2019-11-22 02:13:00
Charleston Afb Intl (CHS) - Chicago Ohare Intl (ORD) AA3746 2019-11-21 21:43:00
NW Arkansas Regional (XNA) - Chicago Ohare Intl (ORD) AA3759 2019-11-21 15:25:00
Chicago Ohare Intl (ORD) - NW Arkansas Regional (XNA) AA4029 2019-11-21 00:33:00
Chicago Ohare Intl (ORD) - Port Columbus (CMH) - Chicago Ohare Intl (ORD) AA3399 2019-11-20 23:06:00
Cincinnati Northern Kentucky Intl (CVG) - Chicago Ohare Intl (ORD) AA3707 2019-11-20 18:57:00
Dallas Fort Worth (DFW) - Cincinnati Northern Kentucky Intl (CVG) AA3457 2019-11-20 15:50:00
Dallas Fort Worth (DFW) - General Mariano Escobedo (MTY) - Dallas Fort Worth (DFW) AA3701 2019-11-19 20:32:00
Pierre Elliott Trudeau (YUL) - Dallas Fort Worth (DFW) AA3981 2019-11-19 16:42:00
Dallas Fort Worth (DFW) - Pierre Elliott Trudeau (YUL) AA3300 2019-11-19 11:12:00
Dallas Fort Worth (DFW) - Lovell Field (CHA) - Dallas Fort Worth (DFW) AA3714 2019-11-19 01:05:00
Dallas Fort Worth (DFW) - James M Cox Dayton Intl (DAY) - Dallas Fort Worth (DFW) AA3773 2019-11-18 19:22:00
Shreveport Rgnl (SHV) - Dallas Fort Worth (DFW) AA3308 2019-11-18 13:03:00
Dallas Fort Worth (DFW) - Shreveport Rgnl (SHV) AA3306 2019-11-18 11:12:00
Adams Fld (LIT) - Dallas Fort Worth (DFW) AA3413 2019-11-18 04:51:00
Time Lat Lon Altitude Heading Speed Vertical Rate
2019-11-08 13:59:22 GMT 41.977650 -87.894745 0 284 10 0
2019-11-08 13:59:02 GMT 41.976814 -87.894318 0 0 17 0
2019-11-08 13:58:58 GMT 41.976421 -87.894318 0 0 19 0
2019-11-08 13:58:49 GMT 41.975670 -87.894310 0 0 19 0
2019-11-08 13:58:40 GMT 41.974812 -87.894310 0 0 19 0
2019-11-08 13:58:28 GMT 41.973850 -87.894310 0 0 18 0
2019-11-08 13:58:16 GMT 41.972870 -87.894318 0 2 17 0
2019-11-08 13:57:54 GMT 41.971642 -87.894371 0 2 8 0
2019-11-08 13:57:46 GMT 41.971451 -87.894379 0 2 0 0
2019-11-08 13:57:24 GMT 41.971394 -87.894379 0 0 0 0
2019-11-08 13:57:09 GMT 41.971310 -87.894379 0 0 4 0
2019-11-08 13:57:03 GMT 41.971195 -87.894379 0 0 6 0
2019-11-08 13:56:53 GMT 41.970833 -87.894379 0 354 9 0
2019-11-08 13:56:40 GMT 41.970474 -87.893959 0 281 7 0
2019-11-08 13:56:33 GMT 41.970451 -87.893761 0 275 5 0
2019-11-08 13:56:17 GMT 41.970440 -87.893265 0 270 8 0
2019-11-08 13:56:03 GMT 41.970440 -87.892273 0 270 14 0
2019-11-08 13:55:52 GMT 41.970440 -87.891472 0 272 13 0
2019-11-08 13:55:38 GMT 41.969982 -87.890701 0 357 14 0
2019-11-08 13:55:30 GMT 41.969509 -87.890686 0 0 16 0
2019-11-08 13:55:20 GMT 41.968761 -87.890701 0 0 16 0
2019-11-08 13:55:09 GMT 41.968037 -87.890862 0 39 16 0
2019-11-08 13:54:58 GMT 41.967487 -87.891968 0 75 20 0
2019-11-08 13:54:45 GMT 41.967419 -87.893509 0 90 24 0
2019-11-08 13:54:38 GMT 41.967419 -87.894638 0 90 23 0
2019-11-08 13:54:26 GMT 41.967407 -87.896225 0 90 27 0
2019-11-08 13:54:16 GMT 41.967415 -87.898132 0 90 30 0
2019-11-08 13:54:05 GMT 41.967415 -87.900208 0 90 32 0
2019-11-08 13:53:53 GMT 41.967407 -87.902596 0 90 34 0
2019-11-08 13:53:43 GMT 41.967407 -87.904579 0 90 33 0
2019-11-08 13:51:14 GMT 41.965759 -87.898552 100 270 89 -64
2019-11-08 13:51:04 GMT 41.965816 -87.893242 150 270 119 -640
2019-11-08 13:50:57 GMT 41.965771 -87.887238 250 270 121 -832
2019-11-08 13:50:50 GMT 41.965816 -87.882385 325 270 122 -640
2019-11-08 13:50:47 GMT 41.965805 -87.879829 350 270 122 -640
2019-11-08 13:50:41 GMT 41.965816 -87.875107 425 270 122 -576
2019-11-08 13:50:29 GMT 41.965805 -87.867027 525 271 120 -704
2019-11-08 13:50:20 GMT 41.965805 -87.859474 650 270 120 -768
2019-11-08 13:50:09 GMT 41.965866 -87.852112 775 270 122 -768
2019-11-08 13:49:59 GMT 41.965851 -87.843620 900 270 124 -640
2019-11-08 13:49:48 GMT 41.965851 -87.835197 1,025 271 125 -768
2019-11-08 13:49:44 GMT 41.965816 -87.832497 1,075 271 125 -768
2019-11-08 13:49:38 GMT 41.965816 -87.827133 1,275 270 128 -704
2019-11-08 13:49:33 GMT 41.965816 -87.822983 1,200 270 132 -768
2019-11-08 13:49:29 GMT 41.965816 -87.820747 1,250 270 128 -704
2019-11-08 13:49:26 GMT 41.965851 -87.818649 1,250 270 128 -704
2019-11-08 13:49:22 GMT 41.965851 -87.813782 1,350 270 132 -768
2019-11-08 13:49:18 GMT 41.965851 -87.811661 1,375 270 138 -832
2019-11-08 13:49:15 GMT 41.965866 -87.807716 1,425 270 143 -896
2019-11-08 13:49:06 GMT 41.965866 -87.800240 1,650 270 158 -1024
2019-11-08 13:49:03 GMT 41.965866 -87.797180 1,625 270 156 -1024
2019-11-08 13:48:59 GMT 41.965866 -87.794876 1,650 270 154 -1024
2019-11-08 13:48:56 GMT 41.965897 -87.791183 1,725 270 161 -960
2019-11-08 13:48:52 GMT 41.965866 -87.787659 1,775 270 166 -896
2019-11-08 13:48:48 GMT 41.965912 -87.782234 1,850 270 168 -960
2019-11-08 13:48:45 GMT 41.965897 -87.780327 1,875 270 168 -960
2019-11-08 13:48:41 GMT 41.965912 -87.775017 1,975 270 168 -1024
2019-11-08 13:48:36 GMT 41.965912 -87.770737 2,025 270 169 -960
2019-11-08 13:48:33 GMT 41.965897 -87.767654 2,125 270 170 -960
2019-11-08 13:48:30 GMT 41.965866 -87.764412 2,125 270 170 -960
2019-11-08 13:48:26 GMT 41.965851 -87.760353 2,200 270 171 -960
2019-11-08 13:48:23 GMT 41.965866 -87.756615 2,225 270 171 -1024
2019-11-08 13:48:20 GMT 41.965897 -87.753044 2,450 270 175 -1024
2019-11-08 13:48:17 GMT 41.965897 -87.749985 2,450 270 175 -1024
2019-11-08 13:48:13 GMT 41.965897 -87.746117 2,400 270 175 -1024
2019-11-08 13:48:07 GMT 41.965866 -87.738800 2,525 270 178 -1024
2019-11-08 13:48:01 GMT 41.965866 -87.733429 2,675 270 180 -1088
2019-11-08 13:47:58 GMT 41.965912 -87.729408 2,675 270 181 -1088
2019-11-08 13:47:55 GMT 41.965897 -87.726517 2,700 270 181 -1088
2019-11-08 13:47:52 GMT 41.965912 -87.723846 2,800 270 183 -1088
2019-11-08 13:47:48 GMT 41.965912 -87.718803 2,825 270 184 -1024
2019-11-08 13:47:45 GMT 41.965912 -87.714272 2,900 271 204 -1088
2019-11-08 13:47:42 GMT 41.965912 -87.710945 2,950 271 187 -1088
2019-11-08 13:47:37 GMT 41.965897 -87.705170 3,050 270 188 -1152
2019-11-08 13:47:34 GMT 41.965912 -87.702583 3,100 270 190 -1152
2019-11-08 13:47:31 GMT 41.965897 -87.699051 3,125 270 190 -1152
2019-11-08 13:47:26 GMT 41.965912 -87.693001 3,225 270 192 -1088
2019-11-08 13:47:23 GMT 41.965912 -87.688721 3,575 271 201 -1152
2019-11-08 13:47:20 GMT 41.965866 -87.685783 3,325 271 195 -1088
2019-11-08 13:47:14 GMT 41.965866 -87.677986 3,450 270 198 -1088
2019-11-08 13:47:10 GMT 41.965851 -87.673271 3,525 270 199 -1152
2019-11-08 13:47:06 GMT 41.965851 -87.667717 3,600 271 201 -1152
2019-11-08 13:47:02 GMT 41.965851 -87.663658 3,650 271 201 -1152
2019-11-08 13:46:58 GMT 41.965816 -87.659401 3,750 271 203 -1152
2019-11-08 13:46:55 GMT 41.965805 -87.653610 3,825 271 205 -1088
2019-11-08 13:46:52 GMT 41.965759 -87.645493 3,900 271 210 -1024
2019-11-08 13:46:44 GMT 41.965759 -87.640251 4,025 271 210 -1024
2019-11-08 13:46:41 GMT 41.965759 -87.637131 4,050 270 212 -1024
2019-11-08 13:46:36 GMT 41.965725 -87.631172 4,100 270 212 -1024
2019-11-08 13:46:33 GMT 41.965725 -87.626381 4,200 270 215 -960
2019-11-08 13:46:30 GMT 41.965725 -87.621010 4,250 270 215 -960
2019-11-08 13:46:27 GMT 41.965725 -87.617119 4,300 271 216 -960
2019-11-08 13:46:23 GMT 41.965714 -87.611969 4,350 271 216 -896
2019-11-08 13:46:16 GMT 41.965679 -87.603577 4,475 271 216 -384
2019-11-08 13:46:13 GMT 41.965633 -87.598785 4,450 271 215 -448
2019-11-08 13:46:10 GMT 41.965622 -87.595802 4,475 271 216 -384
2019-11-08 13:46:06 GMT 41.965576 -87.588814 4,475 271 216 64
2019-11-08 13:46:01 GMT 41.965530 -87.582947 4,475 271 216 0
2019-11-08 13:45:58 GMT 41.965492 -87.578918 4,475 271 216 -64
2019-11-08 13:45:55 GMT 41.965401 -87.567612 4,500 271 216 -192
2019-11-08 13:45:50 GMT 41.965401 -87.567612 4,500 270 215 -128
2019-11-08 13:45:42 GMT 41.965576 -87.553421 4,475 269 215 192
2019-11-08 13:45:39 GMT 41.965633 -87.550941 4,475 269 216 64
2019-11-08 13:45:32 GMT 41.965771 -87.543472 4,475 269 216 -64
2019-11-08 13:45:29 GMT 41.965816 -87.540215 4,475 269 216 -64
2019-11-08 13:45:26 GMT 41.965866 -87.536957 4,475 271 216 -64
2019-11-08 13:45:22 GMT 41.965714 -87.530258 4,475 276 215 64
2019-11-08 13:45:19 GMT 41.965576 -87.527016 4,475 277 215 64
2019-11-08 13:45:15 GMT 41.964157 -87.514717 4,475 284 215 0
2019-11-08 13:45:09 GMT 41.964066 -87.514221 4,475 287 215 -64
2019-11-08 13:45:06 GMT 41.963165 -87.509300 4,475 285 215 -128
2019-11-08 13:44:59 GMT 41.959766 -87.495567 4,475 293 216 128
2019-11-08 13:44:56 GMT 41.959068 -87.493774 4,475 299 216 64
2019-11-08 13:44:49 GMT 41.957291 -87.490311 4,475 311 215 0
2019-11-08 13:44:46 GMT 41.955185 -87.487251 4,475 320 217 -64
2019-11-08 13:44:43 GMT 41.947632 -87.480820 4,475 337 222 64
2019-11-08 13:44:38 GMT 41.947632 -87.480820 4,475 341 224 128
2019-11-08 13:44:35 GMT 41.944107 -87.479324 4,475 345 226 0
2019-11-08 13:44:27 GMT 41.931789 -87.477615 4,475 357 237 0
2019-11-08 13:44:24 GMT 41.931789 -87.477615 4,475 357 241 -64
2019-11-08 13:44:17 GMT 41.925037 -87.477165 4,475 90 260 0
2019-11-08 13:44:14 GMT 41.917450 -87.477043 4,475 0 252 -128
2019-11-08 13:44:07 GMT 41.913940 -87.477203 4,475 6 254 0
2019-11-08 13:44:04 GMT 41.903412 -87.480576 4,475 20 254 -64
2019-11-08 13:43:58 GMT 41.903412 -87.480576 4,500 36 256 0
2019-11-08 13:43:54 GMT 41.899200 -87.483505 4,475 31 255 0
2019-11-08 13:43:51 GMT 41.895199 -87.487518 4,500 42 256 0
2019-11-08 13:43:48 GMT 41.889175 -87.496925 4,500 56 257 -64
2019-11-08 13:43:43 GMT 41.889175 -87.496925 4,500 55 257 -64
2019-11-08 13:43:38 GMT 41.886448 -87.504059 4,500 69 257 192
2019-11-08 13:43:35 GMT 41.885609 -87.507187 4,475 74 258 192
2019-11-08 13:43:32 GMT 41.884724 -87.511536 4,475 78 259 64
2019-11-08 13:43:25 GMT 41.883957 -87.524147 4,475 90 260 64
2019-11-08 13:43:22 GMT 41.883934 -87.529099 4,475 90 260 -64
2019-11-08 13:43:17 GMT 41.883980 -87.536957 4,475 90 260 0
2019-11-08 13:43:13 GMT 41.884003 -87.542435 4,475 90 260 0
2019-11-08 13:43:06 GMT 41.884048 -87.553482 4,475 90 259 64
2019-11-08 13:43:03 GMT 41.884048 -87.558662 4,475 90 259 64
2019-11-08 13:43:00 GMT 41.884071 -87.562759 4,475 90 259 64
2019-11-08 13:42:56 GMT 41.884094 -87.569771 4,475 90 262 0
2019-11-08 13:42:53 GMT 41.884094 -87.575577 4,475 90 260 0
2019-11-08 13:42:50 GMT 41.884094 -87.579323 4,475 90 260 0
2019-11-08 13:42:46 GMT 41.884140 -87.587189 4,475 90 261 64
2019-11-08 13:42:43 GMT 41.884167 -87.591568 4,475 90 261 64
2019-11-08 13:42:40 GMT 41.884167 -87.595528 4,475 90 261 0
2019-11-08 13:42:35 GMT 41.884212 -87.602745 4,475 90 262 0
2019-11-08 13:42:32 GMT 41.884232 -87.608910 4,475 90 262 64
2019-11-08 13:42:29 GMT 41.884232 -87.613403 4,475 90 262 64
2019-11-08 13:42:25 GMT 41.884232 -87.620834 4,475 90 262 -64
2019-11-08 13:42:21 GMT 41.884277 -87.631950 4,475 90 262 0
2019-11-08 13:42:14 GMT 41.884277 -87.639191 4,500 90 261 -64
2019-11-08 13:42:10 GMT 41.884277 -87.644432 4,500 90 261 -64
2019-11-08 13:42:07 GMT 41.884277 -87.647743 4,500 90 261 -64
2019-11-08 13:42:03 GMT 41.884304 -87.656593 4,875 90 262 -1536
2019-11-08 13:42:00 GMT 41.884304 -87.659851 4,500 90 261 -128
2019-11-08 13:41:57 GMT 41.884304 -87.664383 4,500 90 261 -128
2019-11-08 13:41:52 GMT 41.884323 -87.674583 4,500 90 261 -64
2019-11-08 13:41:49 GMT 41.884277 -87.677765 4,500 90 261 -192
2019-11-08 13:41:43 GMT 41.884304 -87.688652 4,525 90 262 -448
2019-11-08 13:41:40 GMT 41.884277 -87.694244 4,675 90 262 -1600
2019-11-08 13:41:37 GMT 41.884323 -87.698868 4,575 90 262 -1088
2019-11-08 13:41:32 GMT 41.884354 -87.705711 4,725 90 262 -1664
2019-11-08 13:41:29 GMT 41.884369 -87.710037 4,875 90 262 -1600
2019-11-08 13:41:26 GMT 41.884354 -87.716118 4,850 90 262 -1664
2019-11-08 13:41:23 GMT 41.884369 -87.721832 5,025 90 262 -1536
2019-11-08 13:41:19 GMT 41.884369 -87.727142 5,025 90 262 -1536
2019-11-08 13:41:13 GMT 41.884369 -87.737694 5,200 90 263 -1536
2019-11-08 13:41:10 GMT 41.884369 -87.740936 5,225 90 263 -1536
2019-11-08 13:41:06 GMT 41.884369 -87.747612 5,300 90 264 -1536
2019-11-08 13:41:02 GMT 41.884369 -87.754921 5,600 90 264 -1408
2019-11-08 13:40:58 GMT 41.884415 -87.764847 5,650 90 264 -1408
2019-11-08 13:40:51 GMT 41.884399 -87.773735 5,750 90 270 -1088
2019-11-08 13:40:48 GMT 41.884445 -87.778526 5,775 90 267 -1088
2019-11-08 13:40:42 GMT 41.884445 -87.788551 5,875 90 268 -960
2019-11-08 13:40:36 GMT 41.884460 -87.802422 6,025 90 274 0
2019-11-08 13:40:30 GMT 41.884460 -87.808540 6,100 90 271 -1088
2019-11-08 13:40:27 GMT 41.884445 -87.813080 6,175 90 272 -1088
2019-11-08 13:40:24 GMT 41.884445 -87.817230 6,200 90 272 -1088
2019-11-08 13:40:20 GMT 41.884491 -87.828796 6,300 90 272 -1216
2019-11-08 13:40:17 GMT 41.884491 -87.828796 6,400 90 272 -1216
2019-11-08 13:40:14 GMT 41.884552 -87.833946 6,400 90 272 -1088
2019-11-08 13:40:09 GMT 41.884552 -87.843498 6,475 90 274 -448
2019-11-08 13:40:06 GMT 41.884586 -87.852112 6,475 90 275 0
2019-11-08 13:40:00 GMT 41.884586 -87.858368 6,500 90 275 -64
2019-11-08 13:39:57 GMT 41.884586 -87.863800 6,500 90 275 -64
2019-11-08 13:39:53 GMT 41.884586 -87.871460 6,500 90 275 -64
2019-11-08 13:39:50 GMT 41.884598 -87.876518 6,500 90 274 0
2019-11-08 13:39:46 GMT 41.884598 -87.880638 6,600 90 277 -1024
2019-11-08 13:39:42 GMT 41.884552 -87.887566 6,500 90 273 -64
2019-11-08 13:39:39 GMT 41.884552 -87.893867 6,500 90 273 -64
2019-11-08 13:39:35 GMT 41.884586 -87.901039 6,500 90 272 -128
2019-11-08 13:39:32 GMT 41.884552 -87.905357 6,500 90 272 -128
2019-11-08 13:39:29 GMT 41.884586 -87.911255 6,500 90 273 -192
2019-11-08 13:39:24 GMT 41.884598 -87.925392 6,525 90 275 -512
2019-11-08 13:39:17 GMT 41.884586 -87.934830 6,650 90 279 -1280
2019-11-08 13:39:11 GMT 41.884598 -87.940750 6,700 90 280 -1280
2019-11-08 13:39:08 GMT 41.884537 -87.956734 6,850 89 283 -1472
2019-11-08 13:39:03 GMT 41.884537 -87.956734 7,050 85 284 -1472
2019-11-08 13:38:58 GMT 41.884277 -87.965347 7,075 85 284 -1472
2019-11-08 13:38:52 GMT 41.883408 -87.974709 7,200 79 284 -1408
2019-11-08 13:38:49 GMT 41.881943 -87.983826 7,300 75 284 -1408
2019-11-08 13:38:43 GMT 41.880814 -87.988930 7,375 71 285 -1408
2019-11-08 13:38:40 GMT 41.879559 -87.993652 7,550 62 283 -1472
2019-11-08 13:38:37 GMT 41.877502 -87.999802 7,600 62 283 -1472
2019-11-08 13:38:32 GMT 41.874390 -88.007164 7,775 54 283 -1664
2019-11-08 13:38:29 GMT 41.872154 -88.011604 8,025 54 282 -1728
2019-11-08 13:38:23 GMT 41.867661 -88.019966 7,950 54 283 -1792
2019-11-08 13:38:20 GMT 41.864868 -88.025208 8,025 54 284 -1792
2019-11-08 13:38:16 GMT 41.862240 -88.030128 8,225 54 285 -1792
2019-11-08 13:38:10 GMT 41.854420 -88.044563 8,375 54 285 -1792
2019-11-08 13:38:06 GMT 41.854420 -88.044563 8,500 54 285 -1856
2019-11-08 13:38:03 GMT 41.851456 -88.050049 8,550 54 285 -1856
2019-11-08 13:38:00 GMT 41.849579 -88.053551 8,600 54 285 -1856
2019-11-08 13:37:56 GMT 41.846191 -88.059914 8,875 54 286 -1856
2019-11-08 13:37:52 GMT 41.843399 -88.064972 8,875 54 286 -1856
2019-11-08 13:37:47 GMT 41.840034 -88.071259 9,000 54 287 -1792
2019-11-08 13:37:43 GMT 41.836761 -88.077332 9,175 54 287 -1792
2019-11-08 13:37:40 GMT 41.833603 -88.083138 9,300 54 287 -1600
2019-11-08 13:37:34 GMT 41.827465 -88.094383 9,400 54 290 -1152
2019-11-08 13:37:31 GMT 41.827465 -88.094383 9,475 54 295 -192
2019-11-08 13:37:28 GMT 41.824951 -88.099113 9,475 54 294 -512
2019-11-08 13:37:25 GMT 41.822063 -88.104477 9,475 54 298 -64
2019-11-08 13:37:21 GMT 41.816620 -88.114594 9,475 54 307 -64
2019-11-08 13:37:18 GMT 41.816620 -88.114594 9,500 54 306 -64
2019-11-08 13:37:15 GMT 41.813599 -88.120216 9,500 54 310 -64
2019-11-08 13:37:11 GMT 41.810009 -88.126892 9,500 54 316 0
2019-11-08 13:37:07 GMT 41.807961 -88.130730 9,475 54 319 -64
2019-11-08 13:37:04 GMT 41.804096 -88.137947 9,500 54 326 -64
2019-11-08 13:37:00 GMT 41.801514 -88.142815 9,475 54 331 0
2019-11-08 13:36:57 GMT 41.798695 -88.147972 9,475 54 336 0
2019-11-08 13:36:53 GMT 41.795242 -88.154488 9,475 54 340 0
2019-11-08 13:36:49 GMT 41.791901 -88.160728 9,475 54 345 0
2019-11-08 13:36:46 GMT 41.787521 -88.168861 9,475 54 348 0
2019-11-08 13:36:43 GMT 41.785660 -88.172241 9,475 54 348 64
2019-11-08 13:36:40 GMT 41.782013 -88.179016 9,475 54 348 0
2019-11-08 13:36:37 GMT 41.779655 -88.183426 9,475 54 348 0
2019-11-08 13:36:33 GMT 41.776016 -88.190125 9,475 54 348 64
2019-11-08 13:36:29 GMT 41.770905 -88.199646 9,475 54 348 0
2019-11-08 13:36:25 GMT 41.767834 -88.205269 9,475 54 348 0
2019-11-08 13:36:18 GMT 41.762741 -88.214722 9,475 54 348 0
2019-11-08 13:36:15 GMT 41.758846 -88.221939 9,475 54 348 0
2019-11-08 13:36:12 GMT 41.756145 -88.226921 9,475 54 348 0
2019-11-08 13:36:09 GMT 41.752701 -88.233307 9,475 54 348 0
2019-11-08 13:36:06 GMT 41.750244 -88.237816 9,475 54 348 64
2019-11-08 13:36:02 GMT 41.746078 -88.245560 9,475 54 348 0
2019-11-08 13:35:57 GMT 41.740448 -88.255920 9,475 54 348 64
2019-11-08 13:35:54 GMT 41.739212 -88.258232 9,475 54 348 64
2019-11-08 13:35:51 GMT 41.736828 -88.262688 9,475 54 348 0
2019-11-08 13:35:47 GMT 41.732220 -88.271126 9,475 54 348 64
2019-11-08 13:35:43 GMT 41.728077 -88.278786 9,475 54 348 64
2019-11-08 13:35:40 GMT 41.726540 -88.281601 9,475 54 348 64
2019-11-08 13:35:35 GMT 41.720440 -88.292839 9,475 54 348 64
2019-11-08 13:35:31 GMT 41.717136 -88.298973 9,475 54 348 64
2019-11-08 13:35:24 GMT 41.710571 -88.311043 9,475 54 348 0
2019-11-08 13:35:20 GMT 41.706429 -88.318710 9,475 54 348 0
2019-11-08 13:35:16 GMT 41.703075 -88.324837 9,475 54 348 -64
2019-11-08 13:35:13 GMT 41.699890 -88.330765 9,475 54 348 -64
2019-11-08 13:35:09 GMT 41.696777 -88.336510 9,475 54 348 0
2019-11-08 13:35:05 GMT 41.693436 -88.342690 9,475 54 346 -64
2019-11-08 13:35:01 GMT 41.689812 -88.349365 9,475 54 348 0
2019-11-08 13:34:58 GMT 41.686981 -88.354607 9,475 54 348 -64
2019-11-08 13:34:54 GMT 41.680573 -88.366470 9,500 54 347 -64
2019-11-08 13:34:48 GMT 41.672699 -88.380951 9,500 54 346 -64
2019-11-08 13:34:44 GMT 41.670364 -88.385262 9,500 54 346 -64
2019-11-08 13:34:41 GMT 41.670364 -88.385262 9,500 54 346 -128
2019-11-08 13:34:38 GMT 41.667557 -88.390442 9,500 54 347 -192
2019-11-08 13:34:32 GMT 41.661758 -88.401115 9,550 54 347 -768
2019-11-08 13:34:29 GMT 41.654892 -88.413727 9,825 54 347 -1536
2019-11-08 13:34:25 GMT 41.654892 -88.413727 9,725 54 347 -1536
2019-11-08 13:34:21 GMT 41.651184 -88.420525 9,800 54 347 -1536
2019-11-08 13:34:18 GMT 41.648380 -88.425758 10,000 54 348 -1600
2019-11-08 13:34:14 GMT 41.641117 -88.439110 10,125 54 348 -1600
2019-11-08 13:34:10 GMT 41.641117 -88.439110 10,250 54 348 -1600
2019-11-08 13:34:07 GMT 41.638275 -88.444313 10,150 54 348 -1600
2019-11-08 13:34:03 GMT 41.635113 -88.450287 10,225 54 348 -1600
2019-11-08 13:34:00 GMT 41.632233 -88.455482 10,350 54 348 -1600
2019-11-08 13:33:57 GMT 41.628361 -88.462685 10,575 54 349 -1600
2019-11-08 13:33:54 GMT 41.625549 -88.467972 10,500 54 349 -1600
2019-11-08 13:33:50 GMT 41.621704 -88.475151 10,600 54 349 -1600
2019-11-08 13:33:46 GMT 41.618214 -88.481712 11,025 54 350 -1536
2019-11-08 13:33:43 GMT 41.611588 -88.494125 10,850 54 350 -1536
2019-11-08 13:33:38 GMT 41.611588 -88.494125 10,900 54 350 -1536
2019-11-08 13:33:35 GMT 41.608978 -88.499054 11,050 54 350 -1536
2019-11-08 13:33:32 GMT 41.606155 -88.504387 11,300 55 351 -1472
2019-11-08 13:33:29 GMT 41.602570 -88.511230 11,275 55 351 -1472
2019-11-08 13:33:26 GMT 41.596619 -88.522591 11,300 55 351 -1408
2019-11-08 13:33:23 GMT 41.596619 -88.522591 11,275 54 350 -1344
2019-11-08 13:33:18 GMT 41.592911 -88.529518 11,425 53 350 -1088
2019-11-08 13:33:15 GMT 41.589676 -88.535561 11,425 53 350 -1024
2019-11-08 13:33:12 GMT 41.582878 -88.547188 11,475 57 355 64
2019-11-08 13:33:09 GMT 41.582878 -88.547188 11,475 50 350 0
2019-11-08 13:33:06 GMT 41.579773 -88.552238 11,475 50 350 0
2019-11-08 13:33:00 GMT 41.574417 -88.560982 11,475 51 350 64
2019-11-08 13:32:55 GMT 41.565701 -88.576569 11,500 55 353 -64
2019-11-08 13:32:47 GMT 41.562256 -88.583275 11,475 57 355 64
2019-11-08 13:32:44 GMT 41.559677 -88.588753 11,475 59 357 -64
2019-11-08 13:32:41 GMT 41.556763 -88.595222 11,475 61 357 -64
2019-11-08 13:32:37 GMT 41.553680 -88.602554 11,475 61 358 -64
2019-11-08 13:32:34 GMT 41.551163 -88.608795 11,475 61 358 64
2019-11-08 13:32:31 GMT 41.548290 -88.616104 11,475 61 358 0
2019-11-08 13:32:24 GMT 41.543381 -88.628273 11,500 61 358 0
2019-11-08 13:32:20 GMT 41.540222 -88.636070 11,475 61 358 -64
2019-11-08 13:32:17 GMT 41.537258 -88.643509 11,475 62 358 -64
2019-11-08 13:32:14 GMT 41.535397 -88.648170 11,500 62 359 0
2019-11-08 13:32:09 GMT 41.530788 -88.659920 11,475 62 358 0
2019-11-08 13:32:06 GMT 41.529419 -88.663475 11,500 62 358 -64
2019-11-08 13:32:03 GMT 41.524521 -88.676086 11,500 62 358 0
2019-11-08 13:32:00 GMT 41.524521 -88.676086 11,500 61 357 0
2019-11-08 13:31:56 GMT 41.518524 -88.690819 11,475 60 358 0
2019-11-08 13:31:53 GMT 41.514313 -88.700745 11,500 60 357 -64
2019-11-08 13:31:48 GMT 41.514313 -88.700745 11,500 60 357 -64
2019-11-08 13:31:43 GMT 41.510818 -88.708855 11,500 59 357 -192
2019-11-08 13:31:40 GMT 41.508209 -88.714661 11,500 58 356 -320
2019-11-08 13:31:37 GMT 41.505695 -88.720154 11,575 57 356 -384
2019-11-08 13:31:33 GMT 41.503052 -88.725708 11,575 57 356 -384
2019-11-08 13:31:29 GMT 41.499527 -88.732887 11,600 55 354 -384
2019-11-08 13:31:25 GMT 41.494263 -88.743126 11,600 55 354 -384
2019-11-08 13:31:22 GMT 41.488678 -88.753929 11,650 55 355 -384
2019-11-08 13:31:13 GMT 41.484558 -88.761856 11,675 55 355 -384
2019-11-08 13:31:10 GMT 41.480804 -88.769096 11,700 55 357 -384
2019-11-08 13:31:07 GMT 41.477997 -88.774513 11,700 55 357 -384
2019-11-08 13:31:04 GMT 41.474808 -88.780640 11,750 55 358 -384
2019-11-08 13:31:01 GMT 41.471786 -88.786446 11,750 55 358 -448
2019-11-08 13:30:56 GMT 41.465378 -88.798805 11,800 55 358 -384
2019-11-08 13:30:53 GMT 41.465378 -88.798805 11,875 55 358 -384
2019-11-08 13:30:48 GMT 41.459702 -88.809731 11,850 55 358 -448
2019-11-08 13:30:45 GMT 41.456863 -88.815201 11,850 55 358 -384
2019-11-08 13:30:41 GMT 41.454582 -88.819542 11,875 55 358 -384
2019-11-08 13:30:37 GMT 41.450638 -88.827148 11,925 55 359 -448
2019-11-08 13:30:34 GMT 41.447041 -88.834106 11,925 55 359 -384
2019-11-08 13:30:31 GMT 41.440987 -88.845734 11,950 55 359 -384
2019-11-08 13:30:28 GMT 41.440987 -88.845734 11,975 55 359 -384
2019-11-08 13:30:24 GMT 41.436893 -88.853653 12,000 55 360 -384
2019-11-08 13:30:21 GMT 41.430954 -88.865036 12,025 55 360 -384
2019-11-08 13:30:17 GMT 41.430954 -88.865036 12,025 55 360 -448
2019-11-08 13:30:13 GMT 41.423813 -88.878708 12,100 55 360 -384
2019-11-08 13:30:10 GMT 41.420551 -88.884949 12,100 55 360 -384
2019-11-08 13:30:06 GMT 41.420551 -88.884949 12,125 55 360 -384
2019-11-08 13:30:03 GMT 41.417152 -88.891533 12,125 55 360 -384
2019-11-08 13:29:58 GMT 41.412590 -88.900284 12,150 55 360 -384
2019-11-08 13:29:55 GMT 41.410126 -88.904991 12,175 55 360 -384
2019-11-08 13:29:50 GMT 41.405655 -88.913567 12,275 55 365 -384
2019-11-08 13:29:47 GMT 41.403168 -88.918282 12,225 55 360 -384
2019-11-08 13:29:44 GMT 41.399002 -88.926277 12,250 55 360 -384
2019-11-08 13:29:41 GMT 41.396301 -88.931389 12,275 55 360 -384
2019-11-08 13:29:38 GMT 41.393005 -88.937759 12,300 55 360 -384
2019-11-08 13:29:34 GMT 41.390434 -88.942696 12,325 55 360 -384
2019-11-08 13:29:31 GMT 41.387558 -88.948181 12,325 55 360 -384
2019-11-08 13:29:27 GMT 41.379959 -88.962769 12,375 55 360 -384
2019-11-08 13:29:24 GMT 41.379959 -88.962769 12,450 55 360 -384
2019-11-08 13:29:20 GMT 41.376572 -88.969299 12,400 55 360 -384
2019-11-08 13:29:17 GMT 41.370529 -88.980835 12,450 55 360 -384
2019-11-08 13:29:10 GMT 41.367249 -88.987198 12,475 55 360 -384
2019-11-08 13:29:06 GMT 41.362106 -88.997009 12,550 55 359 -384
2019-11-08 13:29:03 GMT 41.359909 -89.001221 12,525 55 359 -384
2019-11-08 13:28:58 GMT 41.356476 -89.007751 12,550 55 359 -384
2019-11-08 13:28:55 GMT 41.352028 -89.016228 12,575 55 359 -384
2019-11-08 13:28:50 GMT 41.347790 -89.024216 12,600 55 359 -384
2019-11-08 13:28:46 GMT 41.344021 -89.031517 12,650 55 365 -384
2019-11-08 13:28:43 GMT 41.339630 -89.039856 12,650 55 359 -384
2019-11-08 13:28:40 GMT 41.336014 -89.046745 12,675 55 359 -384
2019-11-08 13:28:37 GMT 41.336014 -89.046745 12,700 55 359 -384
2019-11-08 13:28:34 GMT 41.333733 -89.051056 12,725 55 359 -384
2019-11-08 13:28:31 GMT 41.329376 -89.059387 12,725 55 359 -384
2019-11-08 13:28:28 GMT 41.324478 -89.068726 12,750 55 359 -384
2019-11-08 13:28:21 GMT 41.320789 -89.075775 12,800 55 360 -384
2019-11-08 13:28:18 GMT 41.317932 -89.081177 12,800 55 360 -384
2019-11-08 13:28:15 GMT 41.314178 -89.088440 12,900 55 365 -384
2019-11-08 13:28:12 GMT 41.311798 -89.092957 12,875 55 362 -384
2019-11-08 13:28:09 GMT 41.309509 -89.097351 12,850 55 362 -384
2019-11-08 13:28:05 GMT 41.305298 -89.105408 12,900 55 365 -384
2019-11-08 13:28:01 GMT 41.300674 -89.114197 12,925 55 364 -384
2019-11-08 13:27:56 GMT 41.296955 -89.121216 12,950 55 364 -384
2019-11-08 13:27:53 GMT 41.294449 -89.125977 12,975 55 364 -384
2019-11-08 13:27:49 GMT 41.284424 -89.145081 13,000 55 364 -384
2019-11-08 13:27:44 GMT 41.284424 -89.145081 13,075 55 365 -384
2019-11-08 13:27:38 GMT 41.276474 -89.160172 13,075 55 365 -384
2019-11-08 13:27:34 GMT 41.271866 -89.169037 13,150 55 365 -384
2019-11-08 13:27:30 GMT 41.271866 -89.169037 13,100 55 365 -384
2019-11-08 13:27:27 GMT 41.268002 -89.176399 13,125 55 365 -384
2019-11-08 13:27:23 GMT 41.264603 -89.182831 13,150 55 365 -384
2019-11-08 13:27:18 GMT 41.258781 -89.193878 13,200 55 364 -384
2019-11-08 13:27:14 GMT 41.256828 -89.197685 13,275 55 363 -448
2019-11-08 13:27:11 GMT 41.253891 -89.203186 13,225 55 364 -384
2019-11-08 13:27:06 GMT 41.247608 -89.215103 13,275 55 363 -448
2019-11-08 13:27:03 GMT 41.246567 -89.217102 13,275 54 362 -384
2019-11-08 13:26:58 GMT 41.241001 -89.227646 13,325 54 362 -384
2019-11-08 13:26:55 GMT 41.237507 -89.234200 13,350 54 362 -384
2019-11-08 13:26:52 GMT 41.234062 -89.240761 13,375 54 361 -384
2019-11-08 13:26:49 GMT 41.231831 -89.245003 13,375 54 361 -384
2019-11-08 13:26:42 GMT 41.226242 -89.255554 13,400 55 361 -384
2019-11-08 13:26:39 GMT 41.222565 -89.262543 13,450 55 361 -384
2019-11-08 13:26:36 GMT 41.220238 -89.266914 13,450 55 361 -384
2019-11-08 13:26:33 GMT 41.216995 -89.273071 13,500 55 361 -384
2019-11-08 13:26:28 GMT 41.211273 -89.283875 13,525 55 361 -384
2019-11-08 13:26:20 GMT 41.204224 -89.297310 13,575 55 361 -384
2019-11-08 13:26:13 GMT 41.197495 -89.309998 13,625 55 361 -384
2019-11-08 13:26:09 GMT 41.194382 -89.315918 13,625 55 361 -384
2019-11-08 13:26:00 GMT 41.177902 -89.347168 13,850 55 361 -384
2019-11-08 13:25:52 GMT 41.177902 -89.347168 13,750 55 361 -384
2019-11-08 13:25:49 GMT 41.166779 -89.368164 13,875 55 361 -384
2019-11-08 13:25:41 GMT 41.166779 -89.368164 13,825 54 361 -384
2019-11-08 13:25:32 GMT 41.158676 -89.383362 13,875 54 362 -384
2019-11-08 13:25:29 GMT 41.154972 -89.390450 13,900 54 363 -384
2019-11-08 13:25:24 GMT 41.150314 -89.399124 13,975 54 363 -448
2019-11-08 13:25:21 GMT 41.146824 -89.405739 13,950 54 363 -384
2019-11-08 13:25:17 GMT 41.144127 -89.410797 13,975 54 363 -384
2019-11-08 13:25:13 GMT 41.140503 -89.417603 14,000 54 363 -448
2019-11-08 13:25:09 GMT 41.135513 -89.427063 14,025 54 365 -384
2019-11-08 13:25:00 GMT 41.126862 -89.443420 14,075 55 366 -384
2019-11-08 13:24:57 GMT 41.123550 -89.449684 14,100 54 367 -384
2019-11-08 13:24:54 GMT 41.121548 -89.453369 14,125 54 367 -384
2019-11-08 13:24:49 GMT 41.115772 -89.464294 14,150 54 368 -448
2019-11-08 13:24:45 GMT 41.111618 -89.472107 14,200 54 365 -384
2019-11-08 13:24:41 GMT 41.103333 -89.487610 14,225 54 365 -384
2019-11-08 13:24:36 GMT 41.103333 -89.487610 14,250 54 360 -384
2019-11-08 13:24:33 GMT 41.101501 -89.491089 14,275 54 358 -384
2019-11-08 13:24:27 GMT 41.095779 -89.501892 14,300 54 358 -384
2019-11-08 13:24:24 GMT 41.090916 -89.511047 14,325 54 359 -320
2019-11-08 13:24:16 GMT 41.084290 -89.523499 14,350 54 360 -256
2019-11-08 13:24:08 GMT 41.076344 -89.538452 14,400 55 361 -384
2019-11-08 13:24:04 GMT 41.073486 -89.543884 14,450 54 361 -896
2019-11-08 13:23:58 GMT 41.067501 -89.555115 14,475 54 360 64
2019-11-08 13:23:54 GMT 41.064148 -89.561424 14,475 54 360 64
2019-11-08 13:23:51 GMT 41.060238 -89.568848 14,475 54 360 -64
2019-11-08 13:23:46 GMT 41.056183 -89.576416 14,500 52 357 64
2019-11-08 13:23:43 GMT 41.053070 -89.582092 14,500 53 358 64
2019-11-08 13:23:40 GMT 41.042496 -89.598755 14,500 36 343 640
2019-11-08 13:23:33 GMT 41.042496 -89.598755 14,475 40 347 256
2019-11-08 13:23:26 GMT 41.032631 -89.610359 14,450 37 345 512
2019-11-08 13:23:23 GMT 41.028900 -89.614014 14,375 35 341 960
2019-11-08 13:23:19 GMT 41.020248 -89.621277 14,375 30 336 1536
2019-11-08 13:23:15 GMT 41.020248 -89.621277 14,275 31 337 1408
2019-11-08 13:23:12 GMT 41.015945 -89.624329 13,625 17 324 2752
2019-11-08 13:23:09 GMT 41.010361 -89.627869 13,925 22 328 2560
2019-11-08 13:23:05 GMT 41.004776 -89.630920 13,850 19 325 2624
2019-11-08 13:23:00 GMT 40.999054 -89.633484 13,000 19 325 2624
2019-11-08 13:22:54 GMT 40.990402 -89.636536 13,375 12 321 2944
2019-11-08 13:22:49 GMT 40.983147 -89.638634 13,225 12 321 2944
2019-11-08 13:22:43 GMT 40.973839 -89.641258 12,675 12 321 3008
2019-11-08 13:22:40 GMT 40.969879 -89.642380 12,675 12 321 3008
2019-11-08 13:22:35 GMT 40.963669 -89.644165 12,175 12 321 3136
2019-11-08 13:22:31 GMT 40.949066 -89.648376 11,950 12 321 3136
2019-11-08 13:22:26 GMT 40.949066 -89.648376 11,950 12 322 3008
2019-11-08 13:22:18 GMT 40.938271 -89.651436 11,600 12 322 2560
2019-11-08 13:22:15 GMT 40.934174 -89.652618 11,475 12 321 2432
2019-11-08 13:22:09 GMT 40.925766 -89.655029 11,275 12 319 2048
2019-11-08 13:22:06 GMT 40.920044 -89.656677 11,150 12 317 1856
2019-11-08 13:22:01 GMT 40.912247 -89.658920 11,000 12 313 1344
2019-11-08 13:21:57 GMT 40.908051 -89.660095 10,950 12 312 1216
2019-11-08 13:21:49 GMT 40.896141 -89.663483 10,850 12 299 576
2019-11-08 13:21:44 GMT 40.889156 -89.665482 10,775 11 289 1088
2019-11-08 13:21:39 GMT 40.882645 -89.667297 10,700 11 285 1408
2019-11-08 13:21:28 GMT 40.869461 -89.670959 10,325 12 275 2432
2019-11-08 13:21:21 GMT 40.860947 -89.673462 9,825 12 267 3584
2019-11-08 13:21:17 GMT 40.856598 -89.674805 9,800 12 267 3648
2019-11-08 13:21:09 GMT 40.845978 -89.677917 9,350 12 268 3712
2019-11-08 13:21:06 GMT 40.843304 -89.678711 8,750 11 265 3264
2019-11-08 13:21:01 GMT 40.835949 -89.680771 8,900 12 263 3200
2019-11-08 13:20:56 GMT 40.831200 -89.682083 8,700 11 265 3264
2019-11-08 13:20:50 GMT 40.823936 -89.684082 8,375 12 263 3200
2019-11-08 13:20:46 GMT 40.817917 -89.685791 7,800 11 260 3072
2019-11-08 13:20:37 GMT 40.807983 -89.688599 7,425 12 261 3136
2019-11-08 13:20:34 GMT 40.803036 -89.689949 7,425 12 257 3328
2019-11-08 13:20:29 GMT 40.798428 -89.691261 6,825 12 254 2880
2019-11-08 13:20:24 GMT 40.792557 -89.692932 6,950 12 256 3008
2019-11-08 13:20:10 GMT 40.775478 -89.697876 6,200 12 249 3008
2019-11-08 13:20:02 GMT 40.768021 -89.700012 5,750 12 246 4352
We lost coverage of the aircraft here for a total of 72 minutes
2019-11-08 12:08:12 GMT 40.580154 -89.548279 2,825 308 171 -1024
2019-11-08 12:08:01 GMT 40.575302 -89.540039 3,000 308 171 -960
2019-11-08 12:07:51 GMT 40.570267 -89.531433 3,150 308 174 -1024
2019-11-08 12:07:41 GMT 40.565552 -89.523132 3,325 307 177 -1088
2019-11-08 12:07:32 GMT 40.560734 -89.514664 3,500 307 178 -1280
2019-11-08 12:07:15 GMT 40.552917 -89.500488 3,825 306 177 -1152
2019-11-08 12:07:11 GMT 40.550724 -89.496506 3,900 307 177 -1152
2019-11-08 12:07:06 GMT 40.548477 -89.492493 4,000 307 178 -1280
2019-11-08 12:07:00 GMT 40.545502 -89.487183 4,075 308 178 -1024
2019-11-08 12:06:56 GMT 40.543228 -89.483208 4,225 309 179 -960
2019-11-08 12:06:49 GMT 40.539925 -89.477715 4,350 309 178 -1152
2019-11-08 12:06:42 GMT 40.536198 -89.471596 4,475 309 179 -1152
2019-11-08 12:06:35 GMT 40.532753 -89.465790 4,600 309 178 -896
2019-11-08 12:06:29 GMT 40.529114 -89.459778 4,700 309 180 -832
2019-11-08 12:06:25 GMT 40.527634 -89.457237 4,750 308 179 -704
2019-11-08 12:06:18 GMT 40.524078 -89.451233 4,925 307 179 -448
2019-11-08 12:06:13 GMT 40.521767 -89.447128 4,875 307 179 -512
2019-11-08 12:06:03 GMT 40.516415 -89.437698 4,950 307 179 -128
2019-11-08 12:05:52 GMT 40.511620 -89.429276 5,000 307 182 -512
2019-11-08 12:05:48 GMT 40.509430 -89.425278 5,025 307 183 -448
2019-11-08 12:05:41 GMT 40.501564 -89.411110 5,150 307 185 -320
2019-11-08 12:05:33 GMT 40.501282 -89.410645 5,150 307 184 -320
2019-11-08 12:05:29 GMT 40.499329 -89.407112 5,175 307 183 -384
2019-11-08 12:05:23 GMT 40.496613 -89.402283 5,200 307 182 -576
2019-11-08 12:05:16 GMT 40.493511 -89.396812 5,275 308 179 -1024
2019-11-08 12:05:13 GMT 40.491211 -89.392883 5,350 308 180 -768
2019-11-08 12:05:04 GMT 40.486435 -89.384575 5,700 307 189 -1664
2019-11-08 12:04:50 GMT 40.480011 -89.372971 5,875 307 193 -1472
2019-11-08 12:04:42 GMT 40.475098 -89.364258 6,125 306 201 -2304
2019-11-08 12:04:28 GMT 40.462551 -89.344193 6,725 317 201 -2624
2019-11-08 12:04:20 GMT 40.461948 -89.343445 7,075 316 200 -2432
2019-11-08 12:04:09 GMT 40.455093 -89.335571 7,450 323 201 -2432
2019-11-08 12:04:06 GMT 40.452869 -89.333389 7,600 323 200 -2112
2019-11-08 12:04:01 GMT 40.449142 -89.328979 7,800 312 201 -2304
2019-11-08 12:03:58 GMT 40.447796 -89.326897 7,900 308 202 -2624
2019-11-08 12:03:51 GMT 40.443233 -89.319283 8,275 312 201 -2816
2019-11-08 12:03:48 GMT 40.441978 -89.317474 8,350 314 201 -2752
2019-11-08 12:03:38 GMT 40.433319 -89.309921 8,875 338 202 -2752
2019-11-08 12:03:28 GMT 40.424801 -89.305923 9,300 341 203 -2688
2019-11-08 12:03:18 GMT 40.415405 -89.301636 9,775 342 204 -2688
2019-11-08 12:03:13 GMT 40.412201 -89.300232 10,250 344 206 -2816
2019-11-08 12:03:07 GMT 40.405930 -89.297607 10,250 344 206 -2816
2019-11-08 12:03:04 GMT 40.402222 -89.296204 10,450 346 206 -2816
2019-11-08 12:02:57 GMT 40.395702 -89.294624 10,750 356 208 -2880
2019-11-08 12:02:54 GMT 40.393890 -89.294556 11,050 14 217 -2688
2019-11-08 12:02:46 GMT 40.385883 -89.296562 11,225 24 223 -2560
2019-11-08 12:02:43 GMT 40.383041 -89.298279 11,350 29 227 -2432
2019-11-08 12:02:38 GMT 40.378620 -89.302177 11,550 58 250 -2496
2019-11-08 12:02:35 GMT 40.376152 -89.305237 11,675 46 241 -2560
2019-11-08 12:02:32 GMT 40.373978 -89.308716 11,800 53 246 -2624
2019-11-08 12:02:25 GMT 40.370132 -89.317871 12,075 68 258 -2240
2019-11-08 12:02:21 GMT 40.368896 -89.322693 12,200 74 263 -2176
2019-11-08 12:02:15 GMT 40.367680 -89.334579 12,475 90 275 -2112
2019-11-08 12:02:12 GMT 40.367844 -89.339600 12,575 95 279 -1984
2019-11-08 12:02:05 GMT 40.369720 -89.351074 12,800 107 289 -1728
2019-11-08 12:02:02 GMT 40.374069 -89.363342 12,950 120 300 -896
2019-11-08 12:01:54 GMT 40.376907 -89.368835 12,975 127 307 -384
2019-11-08 12:01:51 GMT 40.379013 -89.372375 13,000 129 311 -384
2019-11-08 12:01:45 GMT 40.385185 -89.381828 13,050 130 316 -448
2019-11-08 12:01:41 GMT 40.388535 -89.386902 13,050 130 326 -512
2019-11-08 12:01:33 GMT 40.396496 -89.399063 13,150 130 331 -704
2019-11-08 12:01:30 GMT 40.399567 -89.403801 13,150 130 326 -512
2019-11-08 12:01:22 GMT 40.407158 -89.415352 13,225 130 333 -768
2019-11-08 12:01:19 GMT 40.410233 -89.420044 13,275 130 335 -896
2019-11-08 12:01:12 GMT 40.417397 -89.431023 13,400 130 341 -896
2019-11-08 12:01:09 GMT 40.420654 -89.436012 13,450 130 342 -768
2019-11-08 12:01:01 GMT 40.431244 -89.452332 13,575 130 351 -768
2019-11-08 12:00:54 GMT 40.435913 -89.459656 13,625 130 356 -768
2019-11-08 12:00:50 GMT 40.440125 -89.466248 13,675 130 360 -768
2019-11-08 12:00:41 GMT 40.450516 -89.482422 13,800 129 370 -448
2019-11-08 12:00:30 GMT 40.462742 -89.501556 14,275 129 391 -1280
2019-11-08 12:00:23 GMT 40.470337 -89.513550 13,950 129 391 -1344
2019-11-08 12:00:19 GMT 40.474503 -89.520142 14,200 129 395 -2368
2019-11-08 12:00:09 GMT 40.486542 -89.539429 14,375 129 397 -2560
2019-11-08 12:00:06 GMT 40.489506 -89.544128 14,525 129 398 -2432
2019-11-08 12:00:03 GMT 40.494461 -89.552124 14,700 129 400 -2304
2019-11-08 11:59:59 GMT 40.498028 -89.557800 14,850 129 402 -2368
2019-11-08 11:59:56 GMT 40.502773 -89.565414 14,975 129 403 -2496
2019-11-08 11:59:53 GMT 40.506126 -89.570786 15,100 129 405 -2560
2019-11-08 11:59:48 GMT 40.511078 -89.578735 15,300 129 406 -2688
2019-11-08 11:59:45 GMT 40.514740 -89.584717 15,425 128 407 -2880
2019-11-08 11:59:42 GMT 40.518173 -89.590332 15,575 128 407 -2816
2019-11-08 11:59:37 GMT 40.524048 -89.599998 15,800 128 409 -2560
2019-11-08 11:59:33 GMT 40.529541 -89.609238 15,975 127 411 -2368
2019-11-08 11:59:29 GMT 40.533405 -89.615730 17,025 125 416 -2624
2019-11-08 11:59:26 GMT 40.536438 -89.620911 16,225 126 415 -2496
2019-11-08 11:59:21 GMT 40.542439 -89.631706 16,450 124 416 -2688
2019-11-08 11:59:16 GMT 40.547882 -89.643433 16,700 117 418 -2688
2019-11-08 11:59:10 GMT 40.552490 -89.656868 17,025 104 420 -2496
2019-11-08 11:59:06 GMT 40.557194 -89.680832 17,550 89 419 -2880
2019-11-08 11:59:00 GMT 40.557194 -89.680832 17,350 97 420 -2560
2019-11-08 11:58:56 GMT 40.557953 -89.692505 17,550 91 420 -2816
2019-11-08 11:58:47 GMT 40.557102 -89.712234 17,900 80 417 -2880
2019-11-08 11:58:44 GMT 40.556076 -89.719727 18,000 78 416 -2880
2019-11-08 11:58:38 GMT 40.552002 -89.737061 18,525 65 410 -2880
2019-11-08 11:58:35 GMT 40.549698 -89.743881 18,550 63 409 -2944
2019-11-08 11:58:29 GMT 40.543488 -89.757996 18,875 55 404 -3136
2019-11-08 11:58:23 GMT 40.538200 -89.766914 19,125 48 399 -3328
2019-11-08 11:58:18 GMT 40.531219 -89.776184 19,475 40 392 -2752
2019-11-08 11:58:15 GMT 40.526470 -89.781395 19,550 36 391 -2688
2019-11-08 11:58:10 GMT 40.519730 -89.787415 19,875 34 389 -2752
2019-11-08 11:58:06 GMT 40.512726 -89.792480 19,900 28 386 -2752
2019-11-08 11:58:03 GMT 40.502773 -89.799004 20,100 26 386 -2752
2019-11-08 11:58:00 GMT 40.502773 -89.799004 20,250 26 387 -2816
2019-11-08 11:57:56 GMT 40.497654 -89.802368 20,350 26 388 -2880
2019-11-08 11:57:52 GMT 40.490982 -89.806702 20,600 26 389 -3008
2019-11-08 11:57:49 GMT 40.484711 -89.810738 20,800 26 389 -2944
2019-11-08 11:57:45 GMT 40.479858 -89.813904 20,875 26 390 -2944
2019-11-08 11:57:42 GMT 40.474983 -89.817101 21,225 26 392 -2880
2019-11-08 11:57:36 GMT 40.463299 -89.824715 21,275 26 393 -2880
2019-11-08 11:57:33 GMT 40.459339 -89.827278 21,550 26 395 -2752
2019-11-08 11:57:29 GMT 40.452126 -89.832024 21,775 26 397 -2560
2019-11-08 11:57:26 GMT 40.448818 -89.834145 21,925 26 398 -2496
2019-11-08 11:57:23 GMT 40.444214 -89.837204 22,000 26 399 -2496
2019-11-08 11:57:20 GMT 40.438206 -89.841072 22,025 26 401 -2496
2019-11-08 11:57:17 GMT 40.434540 -89.843506 22,175 26 402 -2496
2019-11-08 11:57:13 GMT 40.427216 -89.848267 22,375 26 405 -2496
2019-11-08 11:57:10 GMT 40.422844 -89.851120 22,950 26 418 -2240
2019-11-08 11:57:05 GMT 40.412743 -89.857742 22,700 26 410 -2432
2019-11-08 11:57:01 GMT 40.405899 -89.862175 22,875 26 412 -2368
2019-11-08 11:56:57 GMT 40.398834 -89.866821 23,025 26 415 -2304
2019-11-08 11:56:51 GMT 40.388817 -89.873344 23,200 26 418 -2240
2019-11-08 11:56:47 GMT 40.381039 -89.878464 23,400 26 422 -2560
2019-11-08 11:56:44 GMT 40.375809 -89.881897 23,650 26 424 -3072
2019-11-08 11:56:40 GMT 40.361755 -89.891052 24,000 26 424 -3072
2019-11-08 11:56:35 GMT 40.361755 -89.891052 23,950 26 425 -2560
2019-11-08 11:56:32 GMT 40.355392 -89.895142 24,125 26 426 -2496
2019-11-08 11:56:28 GMT 40.350178 -89.898567 24,200 26 427 -2496
2019-11-08 11:56:24 GMT 40.342308 -89.903679 24,425 26 427 -2496
2019-11-08 11:56:21 GMT 40.334930 -89.908508 24,525 26 428 -2496
2019-11-08 11:56:17 GMT 40.330299 -89.911484 24,650 26 430 -2496
2019-11-08 11:56:14 GMT 40.323532 -89.915955 24,875 26 430 -2496
2019-11-08 11:56:11 GMT 40.318939 -89.918915 24,925 26 431 -2496
2019-11-08 11:56:08 GMT 40.313599 -89.922424 25,100 26 432 -2496
2019-11-08 11:56:04 GMT 40.306698 -89.926964 25,325 26 434 -2496
2019-11-08 11:56:01 GMT 40.302414 -89.929771 25,325 26 433 -2496
2019-11-08 11:55:58 GMT 40.294830 -89.934753 25,525 26 434 -2496
2019-11-08 11:55:55 GMT 40.288422 -89.938965 25,675 26 435 -2496
2019-11-08 11:55:52 GMT 40.285934 -89.940575 25,825 26 436 -2496
2019-11-08 11:55:49 GMT 40.279324 -89.944946 25,875 26 437 -2496
2019-11-08 11:55:46 GMT 40.274296 -89.948311 26,000 26 437 -2496
2019-11-08 11:55:43 GMT 40.268570 -89.952126 26,150 28 445 -2112
2019-11-08 11:55:40 GMT 40.263885 -89.955200 26,325 26 439 -2496
2019-11-08 11:55:37 GMT 40.257027 -89.959740 26,400 26 440 -2560
2019-11-08 11:55:33 GMT 40.251858 -89.963173 26,625 26 440 -2560
2019-11-08 11:55:30 GMT 40.244156 -89.968140 26,700 26 440 -2432
2019-11-08 11:55:27 GMT 40.238686 -89.971657 26,825 26 440 -2240
2019-11-08 11:55:23 GMT 40.233170 -89.975220 27,125 30 450 -2176
2019-11-08 11:55:19 GMT 40.218945 -89.985016 27,125 33 457 -1664
2019-11-08 11:55:16 GMT 40.218945 -89.985016 27,200 28 448 -2176
2019-11-08 11:55:11 GMT 40.210602 -89.991150 27,350 29 449 -2240
2019-11-08 11:55:08 GMT 40.206299 -89.994446 27,450 30 452 -2112
2019-11-08 11:55:05 GMT 40.200325 -89.999191 27,575 31 454 -2112
2019-11-08 11:55:01 GMT 40.192841 -90.005249 27,675 32 456 -2048
2019-11-08 11:54:57 GMT 40.184372 -90.012451 27,850 33 457 -1216
2019-11-08 11:54:54 GMT 40.181843 -90.014671 27,925 34 460 -1152
2019-11-08 11:54:50 GMT 40.171555 -90.023865 27,975 34 461 -1088
2019-11-08 11:54:47 GMT 40.168076 -90.027100 28,050 35 463 -1088
2019-11-08 11:54:44 GMT 40.162849 -90.032082 28,075 36 465 -1088
2019-11-08 11:54:41 GMT 40.157684 -90.037170 28,125 38 467 -1088
2019-11-08 11:54:38 GMT 40.151260 -90.043823 28,225 40 470 -1088
2019-11-08 11:54:34 GMT 40.145905 -90.049629 28,250 40 470 -1088
2019-11-08 11:54:31 GMT 40.139294 -90.057053 28,325 40 471 -1088
2019-11-08 11:54:27 GMT 40.134338 -90.062622 28,375 40 472 -1088
2019-11-08 11:54:24 GMT 40.128387 -90.069336 28,425 40 472 -1088
2019-11-08 11:54:21 GMT 40.123764 -90.074585 28,500 40 471 -1088
2019-11-08 11:54:17 GMT 40.116856 -90.082397 28,575 40 471 -1088
2019-11-08 11:54:14 GMT 40.112247 -90.087639 28,625 40 471 -1088
2019-11-08 11:54:11 GMT 40.107780 -90.092636 28,700 41 470 -1088
2019-11-08 11:54:07 GMT 40.093861 -90.108490 28,775 41 469 -1088
2019-11-08 11:54:03 GMT 40.093861 -90.108490 28,825 41 470 -1216
2019-11-08 11:53:59 GMT 40.089569 -90.113342 28,875 41 470 -1344
2019-11-08 11:53:56 GMT 40.072819 -90.132462 28,975 41 475 -64
2019-11-08 11:53:50 GMT 40.072819 -90.132462 29,000 41 474 -64
2019-11-08 11:53:45 GMT 40.066498 -90.139587 29,000 41 474 -64
2019-11-08 11:53:42 GMT 40.059906 -90.147156 29,000 41 476 0
2019-11-08 11:53:36 GMT 40.049332 -90.159302 29,000 41 476 0
2019-11-08 11:53:31 GMT 40.041767 -90.168037 29,000 41 476 0
2019-11-08 11:53:27 GMT 40.036331 -90.174377 29,000 41 477 -64
2019-11-08 11:53:24 GMT 40.029739 -90.182068 29,000 41 477 -64
2019-11-08 11:53:21 GMT 40.024979 -90.187561 29,000 41 476 0
2019-11-08 11:53:18 GMT 40.020996 -90.192139 29,000 41 476 0
2019-11-08 11:53:14 GMT 40.015373 -90.198563 29,000 41 476 0
2019-11-08 11:53:09 GMT 40.003967 -90.211174 29,000 40 475 0
2019-11-08 11:53:06 GMT 40.000614 -90.214920 29,000 40 476 64
2019-11-08 11:53:03 GMT 39.994701 -90.221535 29,000 40 476 0
2019-11-08 11:53:00 GMT 39.989258 -90.227715 29,000 41 476 0
2019-11-08 11:52:57 GMT 39.986252 -90.231079 29,000 41 476 0
2019-11-08 11:52:54 GMT 39.981297 -90.236832 29,000 41 477 0
2019-11-08 11:52:51 GMT 39.977005 -90.241760 29,000 41 478 -64
2019-11-08 11:52:47 GMT 39.970413 -90.249390 29,000 41 478 0
2019-11-08 11:52:44 GMT 39.959045 -90.262794 29,000 42 478 0
2019-11-08 11:52:41 GMT 39.959045 -90.262794 29,000 42 479 64
2019-11-08 11:52:37 GMT 39.951782 -90.271416 29,000 42 479 0
2019-11-08 11:52:34 GMT 39.947266 -90.276901 29,000 42 479 64
2019-11-08 11:52:29 GMT 39.939697 -90.286072 29,000 43 479 -64
2019-11-08 11:52:25 GMT 39.932323 -90.295258 29,000 44 481 64
2019-11-08 11:52:20 GMT 39.925186 -90.304504 29,000 45 482 64
2019-11-08 11:52:17 GMT 39.919102 -90.312500 29,000 45 482 0
2019-11-08 11:52:14 GMT 39.915985 -90.316650 29,000 45 482 -64
2019-11-08 11:52:10 GMT 39.908798 -90.326187 29,000 45 482 0
2019-11-08 11:52:07 GMT 39.903900 -90.332634 29,000 45 482 0
2019-11-08 11:52:03 GMT 39.898178 -90.340279 29,000 45 482 0
2019-11-08 11:51:57 GMT 39.888519 -90.353149 29,000 45 482 0
2019-11-08 11:51:54 GMT 39.884792 -90.358032 29,000 45 482 64
2019-11-08 11:51:48 GMT 39.875389 -90.370544 29,000 45 482 -64
2019-11-08 11:51:45 GMT 39.871307 -90.375984 29,000 45 482 -64
2019-11-08 11:51:42 GMT 39.866032 -90.382996 29,000 45 482 0
2019-11-08 11:51:38 GMT 39.858902 -90.392464 29,000 45 482 0
2019-11-08 11:51:34 GMT 39.854767 -90.397888 29,000 45 482 0
2019-11-08 11:51:31 GMT 39.847878 -90.406982 29,000 45 481 0
2019-11-08 11:51:24 GMT 39.836975 -90.421478 29,000 45 481 0
2019-11-08 11:51:20 GMT 39.832890 -90.426819 29,000 45 480 0
2019-11-08 11:51:17 GMT 39.826649 -90.435059 29,000 45 481 -64
2019-11-08 11:51:14 GMT 39.817341 -90.447327 29,000 45 481 -64
2019-11-08 11:51:11 GMT 39.817341 -90.447327 29,000 45 480 64
2019-11-08 11:51:07 GMT 39.810356 -90.456543 29,000 45 480 64
2019-11-08 11:51:03 GMT 39.804119 -90.464783 29,000 45 480 -64
2019-11-08 11:50:56 GMT 39.793304 -90.479042 29,000 45 481 64
2019-11-08 11:50:52 GMT 39.788525 -90.485413 29,000 45 481 -64
2019-11-08 11:50:46 GMT 39.777557 -90.499817 29,000 45 482 64
2019-11-08 11:50:43 GMT 39.773804 -90.504776 29,000 45 482 0
2019-11-08 11:50:40 GMT 39.769157 -90.510986 29,000 45 482 -64
2019-11-08 11:50:31 GMT 39.755379 -90.529175 29,000 45 482 0
2019-11-08 11:50:28 GMT 39.750687 -90.535347 29,000 45 481 0
2019-11-08 11:50:22 GMT 39.741646 -90.547302 29,000 45 482 64
2019-11-08 11:50:18 GMT 39.735359 -90.555542 29,000 45 481 0
2019-11-08 11:50:12 GMT 39.720371 -90.575256 29,000 45 481 0
2019-11-08 11:50:09 GMT 39.720371 -90.575256 29,000 45 480 -64
2019-11-08 11:50:04 GMT 39.708500 -90.590881 29,000 45 480 0
2019-11-08 11:50:01 GMT 39.703995 -90.596848 29,000 45 480 -64
2019-11-08 11:49:58 GMT 39.703995 -90.596848 29,000 45 480 -64
2019-11-08 11:49:53 GMT 39.695068 -90.608543 29,000 45 480 -64
2019-11-08 11:49:50 GMT 39.690533 -90.614563 29,000 45 480 0
2019-11-08 11:49:47 GMT 39.687412 -90.618652 29,000 45 480 64
2019-11-08 11:49:41 GMT 39.677536 -90.631592 29,000 45 481 -64
2019-11-08 11:49:38 GMT 39.671402 -90.639656 29,000 45 481 0
2019-11-08 11:49:30 GMT 39.660366 -90.654175 29,000 45 480 0
2019-11-08 11:49:27 GMT 39.655655 -90.660378 29,000 45 480 0
2019-11-08 11:49:23 GMT 39.648148 -90.670166 29,000 45 480 0
2019-11-08 11:49:19 GMT 39.641605 -90.678772 29,000 45 480 0
2019-11-08 11:49:15 GMT 39.635971 -90.686157 29,000 45 479 0
2019-11-08 11:49:11 GMT 39.631596 -90.691895 29,000 45 480 -64
2019-11-08 11:49:08 GMT 39.625671 -90.699661 29,000 45 479 -64
2019-11-08 11:49:05 GMT 39.619446 -90.707840 29,000 45 479 64
2019-11-08 11:48:58 GMT 39.609604 -90.720741 29,000 45 480 0
2019-11-08 11:48:54 GMT 39.604176 -90.727844 29,000 45 480 -64
2019-11-08 11:48:49 GMT 39.596031 -90.738464 29,000 45 480 64
2019-11-08 11:48:46 GMT 39.590790 -90.745338 29,000 45 480 0
2019-11-08 11:48:38 GMT 39.579132 -90.760620 29,000 45 480 0
2019-11-08 11:48:35 GMT 39.574245 -90.767029 29,000 45 480 0
2019-11-08 11:48:31 GMT 39.566940 -90.776566 29,000 45 480 0
2019-11-08 11:48:28 GMT 39.561951 -90.783134 29,000 45 480 0
2019-11-08 11:48:24 GMT 39.557903 -90.788391 29,000 45 480 64
2019-11-08 11:48:19 GMT 39.547848 -90.801514 29,000 45 480 0
2019-11-08 11:48:16 GMT 39.544418 -90.805946 29,000 45 480 -64
2019-11-08 11:48:13 GMT 39.539429 -90.812508 29,000 45 480 -64
2019-11-08 11:48:07 GMT 39.530777 -90.823738 29,000 45 479 0
2019-11-08 11:48:04 GMT 39.525970 -90.830078 29,000 45 479 0
2019-11-08 11:47:58 GMT 39.515030 -90.844337 29,000 45 479 64
2019-11-08 11:47:54 GMT 39.511276 -90.849228 29,000 45 479 -64
2019-11-08 11:47:51 GMT 39.505051 -90.857353 29,000 45 479 -64
2019-11-08 11:47:47 GMT 39.497543 -90.867142 29,000 45 479 0
2019-11-08 11:47:44 GMT 39.493835 -90.872040 29,000 45 479 64
2019-11-08 11:47:39 GMT 39.486969 -90.880936 29,000 45 479 0
2019-11-08 11:47:36 GMT 39.481651 -90.887878 29,000 45 479 0
2019-11-08 11:47:32 GMT 39.475414 -90.895996 29,000 45 479 0
2019-11-08 11:47:25 GMT 39.463852 -90.911026 29,000 45 480 0
2019-11-08 11:47:22 GMT 39.460052 -90.915924 29,000 45 480 64
2019-11-08 11:47:15 GMT 39.449432 -90.929779 29,000 45 480 0
2019-11-08 11:47:12 GMT 39.444130 -90.936707 29,000 45 480 0
2019-11-08 11:47:07 GMT 39.435654 -90.947746 29,000 45 480 0
2019-11-08 11:47:04 GMT 39.427929 -90.957764 29,000 45 480 -64
2019-11-08 11:46:57 GMT 39.421234 -90.966438 29,000 45 480 0
2019-11-08 11:46:54 GMT 39.415314 -90.974182 29,000 45 480 0
2019-11-08 11:46:50 GMT 39.412243 -90.978149 29,000 45 480 0
2019-11-08 11:46:45 GMT 39.402142 -90.991272 29,000 45 480 64
2019-11-08 11:46:41 GMT 39.395809 -90.999512 29,000 45 480 -64
2019-11-08 11:46:34 GMT 39.385437 -91.012955 29,000 45 480 0
2019-11-08 11:46:31 GMT 39.380119 -91.019836 29,000 45 481 64
2019-11-08 11:46:23 GMT 39.368454 -91.034981 29,000 45 482 0
2019-11-08 11:46:20 GMT 39.361542 -91.043938 29,000 45 482 0
2019-11-08 11:46:16 GMT 39.353348 -91.054565 29,000 45 482 0
2019-11-08 11:46:10 GMT 39.348000 -91.061462 29,000 45 482 0
2019-11-08 11:46:04 GMT 39.336914 -91.075768 29,000 45 482 0
2019-11-08 11:46:01 GMT 39.332218 -91.081909 29,000 45 482 0
2019-11-08 11:45:53 GMT 39.320526 -91.097023 29,000 45 482 0
2019-11-08 11:45:48 GMT 39.310757 -91.109619 29,000 45 482 0
2019-11-08 11:45:43 GMT 39.304565 -91.117676 29,000 45 482 0
2019-11-08 11:45:39 GMT 39.298553 -91.125443 29,000 45 482 0
2019-11-08 11:45:35 GMT 39.291348 -91.134705 29,000 45 482 -64
2019-11-08 11:45:32 GMT 39.287750 -91.139351 29,000 45 482 -64
2019-11-08 11:45:29 GMT 39.282501 -91.146179 29,000 45 482 0
2019-11-08 11:45:22 GMT 39.271408 -91.160492 29,000 45 482 0
2019-11-08 11:45:19 GMT 39.265045 -91.168732 29,000 45 482 0
2019-11-08 11:45:11 GMT 39.255569 -91.180969 29,000 45 482 64
2019-11-08 11:45:08 GMT 39.250195 -91.187866 29,000 45 482 0
2019-11-08 11:45:05 GMT 39.244606 -91.195068 29,000 45 484 0
2019-11-08 11:45:01 GMT 39.239487 -91.201721 29,000 45 482 0
2019-11-08 11:44:57 GMT 39.223148 -91.222717 29,000 45 484 0
2019-11-08 11:44:51 GMT 39.223148 -91.222717 29,000 45 484 0
2019-11-08 11:44:48 GMT 39.206360 -91.244385 29,000 45 485 -64
2019-11-08 11:44:40 GMT 39.206360 -91.244385 29,000 45 485 0
2019-11-08 11:44:37 GMT 39.200382 -91.252075 29,000 45 484 0
2019-11-08 11:44:31 GMT 39.190094 -91.265320 29,000 44 484 -64
2019-11-08 11:44:28 GMT 39.185623 -91.270996 29,000 44 484 0
2019-11-08 11:44:25 GMT 39.173904 -91.286057 29,000 45 484 0
2019-11-08 11:44:20 GMT 39.173904 -91.286057 29,000 45 483 0
2019-11-08 11:44:16 GMT 39.157425 -91.307251 29,000 45 483 0
2019-11-08 11:44:09 GMT 39.157425 -91.307251 29,000 45 483 -64
2019-11-08 11:44:06 GMT 39.150467 -91.316208 29,000 45 483 0
2019-11-08 11:43:59 GMT 39.140991 -91.328392 29,000 45 483 0
2019-11-08 11:43:56 GMT 39.136841 -91.333679 29,000 45 483 64
2019-11-08 11:43:53 GMT 39.132111 -91.339798 29,000 45 483 64
2019-11-08 11:43:47 GMT 39.121010 -91.353943 29,000 44 482 0
2019-11-08 11:43:44 GMT 39.117844 -91.358032 29,000 45 482 0
2019-11-08 11:43:38 GMT 39.107742 -91.370972 29,000 45 482 64
2019-11-08 11:43:35 GMT 39.100807 -91.379944 29,000 45 482 -64
2019-11-08 11:43:28 GMT 39.091961 -91.391235 29,000 45 482 0
2019-11-08 11:43:24 GMT 39.083771 -91.401794 29,000 44 481 64
2019-11-08 11:43:18 GMT 39.075211 -91.412697 29,000 44 481 64
2019-11-08 11:43:12 GMT 39.066685 -91.423645 29,000 44 481 -64
2019-11-08 11:43:06 GMT 39.056583 -91.436584 29,000 44 481 0
2019-11-08 11:43:02 GMT 39.050079 -91.444824 29,000 44 481 -64
2019-11-08 11:42:56 GMT 39.040558 -91.457001 29,000 45 482 -64
2019-11-08 11:42:51 GMT 39.024628 -91.477364 29,000 44 482 0
2019-11-08 11:42:46 GMT 39.024628 -91.477364 29,000 44 482 0
2019-11-08 11:42:42 GMT 39.017338 -91.486633 29,000 44 482 0
2019-11-08 11:42:37 GMT 39.009750 -91.496399 29,000 44 482 0
2019-11-08 11:42:31 GMT 39.001511 -91.506897 29,000 44 482 64
2019-11-08 11:42:25 GMT 38.992310 -91.518623 29,000 44 483 0
2019-11-08 11:42:21 GMT 38.985126 -91.527832 29,000 44 483 0
2019-11-08 11:42:15 GMT 38.975784 -91.539696 29,000 44 483 0
2019-11-08 11:42:11 GMT 38.967636 -91.550087 29,000 44 483 0
2019-11-08 11:42:04 GMT 38.958961 -91.561157 29,000 44 482 0
2019-11-08 11:42:00 GMT 38.952347 -91.569611 29,000 44 482 0
2019-11-08 11:41:55 GMT 38.943466 -91.580894 29,000 44 482 0
2019-11-08 11:41:50 GMT 38.935547 -91.591003 29,000 44 482 0
2019-11-08 11:41:44 GMT 38.926750 -91.602112 29,000 44 481 0
2019-11-08 11:41:38 GMT 38.911240 -91.621857 29,000 44 480 0
2019-11-08 11:41:34 GMT 38.911240 -91.621857 29,000 44 480 0
2019-11-08 11:41:29 GMT 38.902679 -91.632751 29,000 44 481 0
2019-11-08 11:41:24 GMT 38.894669 -91.642937 29,000 44 480 0
2019-11-08 11:41:19 GMT 38.886154 -91.653748 29,000 44 480 0
2019-11-08 11:41:13 GMT 38.877594 -91.664604 29,000 44 480 0
2019-11-08 11:41:07 GMT 38.866837 -91.678223 29,000 44 481 0
2019-11-08 11:41:04 GMT 38.862442 -91.683830 29,000 44 481 0
2019-11-08 11:41:00 GMT 38.856766 -91.691055 29,000 44 480 0
2019-11-08 11:40:56 GMT 38.852280 -91.696732 29,000 44 480 0
2019-11-08 11:40:53 GMT 38.846603 -91.703957 29,000 44 480 0
2019-11-08 11:40:50 GMT 38.841187 -91.710815 29,000 44 480 0
2019-11-08 11:40:44 GMT 38.831085 -91.723633 29,000 44 481 0
2019-11-08 11:40:40 GMT 38.825089 -91.731239 29,000 44 480 0
2019-11-08 11:40:37 GMT 38.820145 -91.737511 29,000 44 480 0
2019-11-08 11:40:33 GMT 38.813393 -91.746033 29,000 44 480 0
2019-11-08 11:40:29 GMT 38.809063 -91.751526 29,000 44 480 0
2019-11-08 11:40:26 GMT 38.803291 -91.758789 29,000 44 480 64
2019-11-08 11:40:23 GMT 38.798824 -91.764404 29,000 44 480 0
2019-11-08 11:40:20 GMT 38.791672 -91.773514 29,000 44 480 64
2019-11-08 11:40:15 GMT 38.786858 -91.779602 29,000 44 480 64
2019-11-08 11:40:11 GMT 38.780869 -91.787186 29,000 44 479 0
2019-11-08 11:40:04 GMT 38.769867 -91.801025 29,000 44 480 0
2019-11-08 11:40:01 GMT 38.764435 -91.807907 29,000 44 479 0
2019-11-08 11:39:55 GMT 38.754364 -91.820625 29,000 44 480 0
2019-11-08 11:39:50 GMT 38.748001 -91.828690 29,000 44 480 64
2019-11-08 11:39:45 GMT 38.737930 -91.841408 29,000 44 479 0
2019-11-08 11:39:41 GMT 38.730625 -91.850647 29,000 44 479 0
2019-11-08 11:39:34 GMT 38.720261 -91.863678 29,000 44 479 0
2019-11-08 11:39:30 GMT 38.715775 -91.869347 29,000 44 479 64
2019-11-08 11:39:23 GMT 38.704834 -91.883118 29,000 44 480 0
2019-11-08 11:39:19 GMT 38.697849 -91.891907 29,000 44 480 0
2019-11-08 11:39:14 GMT 38.682583 -91.911194 29,000 44 481 0
2019-11-08 11:39:10 GMT 38.682583 -91.911194 29,000 44 481 0
2019-11-08 11:39:01 GMT 38.667618 -91.930069 29,000 44 482 0
2019-11-08 11:38:58 GMT 38.665451 -91.932800 29,000 44 482 0
2019-11-08 11:38:53 GMT 38.655254 -91.945618 29,000 44 481 0
2019-11-08 11:38:49 GMT 38.649857 -91.952400 29,000 44 481 0
2019-11-08 11:38:39 GMT 38.633003 -91.973572 29,000 44 481 -64
2019-11-08 11:38:32 GMT 38.622856 -91.986328 29,000 44 480 64
2019-11-08 11:38:28 GMT 38.616524 -91.994263 29,000 44 480 0
2019-11-08 11:38:20 GMT 38.603714 -92.010376 29,000 44 480 0
2019-11-08 11:38:17 GMT 38.600464 -92.014442 29,000 44 480 0
2019-11-08 11:38:08 GMT 38.584217 -92.034790 29,000 44 482 0
2019-11-08 11:38:03 GMT 38.577885 -92.042725 29,000 44 480 64
2019-11-08 11:37:59 GMT 38.569336 -92.053429 29,000 44 480 64
2019-11-08 11:37:49 GMT 38.550606 -92.076843 29,000 44 480 0
2019-11-08 11:37:46 GMT 38.550606 -92.076843 29,000 44 480 0
2019-11-08 11:37:37 GMT 38.534733 -92.096741 29,000 44 481 0
2019-11-08 11:37:29 GMT 38.523605 -92.110687 29,000 44 482 0
2019-11-08 11:37:26 GMT 38.518810 -92.116699 29,000 44 482 0
2019-11-08 11:37:18 GMT 38.506706 -92.131836 29,000 44 482 0
2019-11-08 11:37:15 GMT 38.501404 -92.138451 29,000 44 482 0
2019-11-08 11:37:09 GMT 38.490417 -92.152184 29,000 44 482 0
2019-11-08 11:37:04 GMT 38.483459 -92.160843 29,000 44 482 0
2019-11-08 11:36:57 GMT 38.473251 -92.173561 29,000 44 482 64
2019-11-08 11:36:54 GMT 38.467091 -92.181274 29,000 44 483 0
2019-11-08 11:36:46 GMT 38.455261 -92.196068 29,000 44 484 0
2019-11-08 11:36:42 GMT 38.447910 -92.205261 29,000 44 484 -64
2019-11-08 11:36:37 GMT 38.440323 -92.214722 29,000 44 484 0
2019-11-08 11:36:34 GMT 38.434113 -92.222404 29,000 44 484 0
2019-11-08 11:36:25 GMT 38.417187 -92.243469 29,000 44 484 64
2019-11-08 11:36:15 GMT 38.406006 -92.257401 29,000 44 484 64
2019-11-08 11:36:12 GMT 38.401218 -92.263367 29,000 44 484 0
2019-11-08 11:36:05 GMT 38.389252 -92.278259 29,000 44 483 0
2019-11-08 11:36:02 GMT 38.384460 -92.284264 29,000 44 483 0
2019-11-08 11:35:56 GMT 38.372681 -92.298828 29,000 44 483 0
2019-11-08 11:35:52 GMT 38.367050 -92.305817 29,000 44 483 0
2019-11-08 11:35:45 GMT 38.357117 -92.318176 29,000 44 483 0
2019-11-08 11:35:41 GMT 38.351086 -92.325699 29,000 44 483 0
2019-11-08 11:35:33 GMT 38.336700 -92.343536 29,000 44 482 0
2019-11-08 11:35:24 GMT 38.322968 -92.360626 29,000 44 482 0
2019-11-08 11:35:20 GMT 38.317799 -92.367073 29,000 44 482 -64
2019-11-08 11:35:13 GMT 38.306904 -92.380569 29,000 44 482 0
2019-11-08 11:35:10 GMT 38.301273 -92.387558 29,000 44 482 0
2019-11-08 11:35:04 GMT 38.290287 -92.401169 29,000 44 482 0
2019-11-08 11:34:59 GMT 38.283646 -92.409393 29,000 44 482 0
2019-11-08 11:34:52 GMT 38.273300 -92.422195 29,000 44 482 0
2019-11-08 11:34:49 GMT 38.267242 -92.429710 29,000 44 482 -64
2019-11-08 11:34:43 GMT 38.256683 -92.442825 29,000 44 482 0
2019-11-08 11:34:39 GMT 38.250458 -92.450539 29,000 44 482 0
2019-11-08 11:34:30 GMT 38.237823 -92.466133 29,000 44 482 0
2019-11-08 11:34:27 GMT 38.231735 -92.473679 29,000 44 481 0
2019-11-08 11:34:21 GMT 38.217682 -92.491035 29,000 44 482 0
2019-11-08 11:34:17 GMT 38.217682 -92.491035 29,000 44 481 -64
2019-11-08 11:34:10 GMT 38.204269 -92.507629 29,000 44 481 -64
2019-11-08 11:34:01 GMT 38.190525 -92.524590 29,000 44 481 0
2019-11-08 11:33:57 GMT 38.183495 -92.533241 29,000 44 481 0
2019-11-08 11:33:51 GMT 38.173645 -92.545441 29,000 44 481 -64
2019-11-08 11:33:47 GMT 38.168831 -92.551338 29,000 44 481 -64
2019-11-08 11:33:43 GMT 38.162453 -92.559219 29,000 44 481 0
2019-11-08 11:33:39 GMT 38.155106 -92.568291 29,000 44 481 0
2019-11-08 11:33:36 GMT 38.149651 -92.574982 29,000 44 481 0
2019-11-08 11:33:33 GMT 38.145493 -92.580093 29,000 44 480 0
2019-11-08 11:33:28 GMT 38.137848 -92.589500 29,000 44 480 0
2019-11-08 11:33:24 GMT 38.132126 -92.596573 29,000 44 480 0
2019-11-08 11:33:20 GMT 38.123489 -92.607224 29,000 44 480 0
2019-11-08 11:33:15 GMT 38.116459 -92.615883 29,000 44 480 0
2019-11-08 11:33:09 GMT 38.107864 -92.626495 29,000 44 480 0
2019-11-08 11:33:06 GMT 38.103054 -92.632362 29,000 44 480 0
2019-11-08 11:33:02 GMT 38.096165 -92.640778 29,000 44 480 0
2019-11-08 11:32:57 GMT 38.089134 -92.649437 29,000 44 480 0
2019-11-08 11:32:54 GMT 38.082664 -92.657379 29,000 44 481 0
2019-11-08 11:32:46 GMT 38.070560 -92.672302 29,000 44 483 0
2019-11-08 11:32:42 GMT 38.064972 -92.679199 29,000 44 482 0
2019-11-08 11:32:37 GMT 38.055664 -92.690575 29,000 44 483 0
2019-11-08 11:32:33 GMT 38.047935 -92.700066 29,000 44 483 0
2019-11-08 11:32:27 GMT 38.040859 -92.708664 29,000 44 483 -64
2019-11-08 11:32:22 GMT 38.031555 -92.720108 29,000 44 483 0
2019-11-08 11:32:17 GMT 38.024193 -92.729149 29,000 44 483 0
2019-11-08 11:32:12 GMT 38.015163 -92.740250 29,000 44 483 -64
2019-11-08 11:32:07 GMT 38.007065 -92.750145 29,000 44 483 0
2019-11-08 11:32:00 GMT 37.997704 -92.761566 29,000 44 483 0
2019-11-08 11:31:56 GMT 37.991280 -92.769447 29,000 44 483 0
2019-11-08 11:31:51 GMT 37.980343 -92.782822 29,000 44 483 64
2019-11-08 11:31:44 GMT 37.971355 -92.793869 29,000 44 483 64
2019-11-08 11:31:39 GMT 37.964630 -92.802101 29,000 44 483 0
2019-11-08 11:31:34 GMT 37.947876 -92.822548 29,000 44 483 64
2019-11-08 11:31:30 GMT 37.947876 -92.822548 29,000 44 483 64
2019-11-08 11:31:24 GMT 37.939499 -92.832779 29,000 44 483 0
2019-11-08 11:31:19 GMT 37.930904 -92.843246 29,000 44 483 0
2019-11-08 11:31:13 GMT 37.922569 -92.853462 29,000 44 483 0
2019-11-08 11:31:09 GMT 37.913223 -92.864922 29,000 44 483 0
2019-11-08 11:31:03 GMT 37.904415 -92.875671 29,000 43 483 0
2019-11-08 11:30:57 GMT 37.897018 -92.884727 29,000 43 484 64
2019-11-08 11:30:54 GMT 37.889610 -92.893761 29,000 43 484 0
2019-11-08 11:30:48 GMT 37.879929 -92.905525 29,000 43 484 64
2019-11-08 11:30:43 GMT 37.872944 -92.914001 29,000 43 483 0
2019-11-08 11:30:36 GMT 37.862915 -92.926224 29,000 44 484 0
2019-11-08 11:30:33 GMT 37.857010 -92.933411 29,000 43 484 0
2019-11-08 11:30:26 GMT 37.846024 -92.946793 29,000 44 484 0
2019-11-08 11:30:22 GMT 37.838242 -92.956261 29,000 44 484 0
2019-11-08 11:30:15 GMT 37.828861 -92.967682 29,000 44 484 0
2019-11-08 11:30:11 GMT 37.821785 -92.976341 29,000 43 483 0
2019-11-08 11:30:05 GMT 37.811451 -92.988876 29,000 43 483 0
2019-11-08 11:30:02 GMT 37.805771 -92.995743 29,000 43 483 0
2019-11-08 11:29:55 GMT 37.794689 -93.009239 29,000 43 483 0
2019-11-08 11:29:50 GMT 37.788265 -93.016998 29,000 43 483 0
2019-11-08 11:29:44 GMT 37.777981 -93.029541 29,000 43 483 0
2019-11-08 11:29:40 GMT 37.772812 -93.035751 29,000 43 483 64
2019-11-08 11:29:37 GMT 37.766388 -93.043571 29,000 43 483 0
2019-11-08 11:29:34 GMT 37.761566 -93.049408 29,000 43 483 0
2019-11-08 11:29:27 GMT 37.748657 -93.065071 29,000 43 483 0
2019-11-08 11:29:22 GMT 37.743668 -93.071144 29,000 43 483 0
2019-11-08 11:29:13 GMT 37.727417 -93.090843 29,000 43 483 64
2019-11-08 11:29:02 GMT 37.710022 -93.111877 29,000 43 483 0
2019-11-08 11:28:55 GMT 37.699081 -93.125145 29,000 43 483 0
2019-11-08 11:28:52 GMT 37.692974 -93.132538 29,000 43 483 0
2019-11-08 11:28:41 GMT 37.676868 -93.152061 29,000 43 482 0
2019-11-08 11:28:31 GMT 37.659458 -93.173019 29,000 43 482 0
2019-11-08 11:28:20 GMT 37.642410 -93.193634 29,000 43 482 0
2019-11-08 11:28:10 GMT 37.625793 -93.213737 29,000 43 482 0
2019-11-08 11:27:58 GMT 37.607876 -93.235352 29,000 43 483 -64
2019-11-08 11:27:53 GMT 37.597637 -93.247597 29,000 43 483 -64
2019-11-08 11:27:49 GMT 37.591679 -93.254822 29,000 43 483 -64
2019-11-08 11:27:44 GMT 37.584602 -93.263359 29,000 43 483 0
2019-11-08 11:27:38 GMT 37.574661 -93.275269 29,000 43 483 0
2019-11-08 11:27:29 GMT 37.561325 -93.291359 29,000 43 482 0
2019-11-08 11:27:24 GMT 37.552246 -93.302284 29,000 43 482 -64
2019-11-08 11:27:20 GMT 37.544815 -93.311211 29,000 43 483 0
2019-11-08 11:27:16 GMT 37.540970 -93.315887 29,000 43 483 0
2019-11-08 11:27:09 GMT 37.528366 -93.331070 29,000 43 483 0
2019-11-08 11:27:06 GMT 37.521896 -93.338829 29,000 43 484 -64
2019-11-08 11:26:58 GMT 37.506348 -93.357574 29,000 43 483 64
2019-11-08 11:26:55 GMT 37.506348 -93.357574 29,000 43 484 64
2019-11-08 11:26:46 GMT 37.489681 -93.377579 29,000 43 481 0
2019-11-08 11:26:38 GMT 37.477951 -93.391609 29,000 43 476 128
2019-11-08 11:26:34 GMT 37.472317 -93.398361 29,000 43 475 320
2019-11-08 11:26:28 GMT 37.461426 -93.411430 28,900 43 473 1024
2019-11-08 11:26:25 GMT 37.456787 -93.416985 28,850 43 471 1088
2019-11-08 11:26:13 GMT 37.439266 -93.438004 28,650 43 470 1088
2019-11-08 11:26:06 GMT 37.428360 -93.451111 28,525 43 469 1088
2019-11-08 11:26:03 GMT 37.422974 -93.457588 28,475 43 468 1152
2019-11-08 11:25:56 GMT 37.411800 -93.471024 28,325 43 468 1280
2019-11-08 11:25:52 GMT 37.404163 -93.480156 28,200 43 467 1408
2019-11-08 11:25:42 GMT 37.390526 -93.496521 28,025 43 466 1216
2019-11-08 11:25:36 GMT 37.379864 -93.509354 27,875 43 466 1344
2019-11-08 11:25:32 GMT 37.373932 -93.516441 27,800 43 465 1280
2019-11-08 11:25:25 GMT 37.363010 -93.529480 27,650 43 464 1280
2019-11-08 11:25:21 GMT 37.357380 -93.536224 27,575 43 464 1280
2019-11-08 11:25:14 GMT 37.347198 -93.548409 27,450 43 463 1216
2019-11-08 11:25:11 GMT 37.340927 -93.555946 27,350 43 463 1280
2019-11-08 11:25:05 GMT 37.331635 -93.567047 27,225 43 462 1152
2019-11-08 11:24:59 GMT 37.324219 -93.575935 27,150 43 461 1152
2019-11-08 11:24:54 GMT 37.315250 -93.586678 27,050 43 461 1152
2019-11-08 11:24:50 GMT 37.308453 -93.594795 26,950 43 460 1152
2019-11-08 11:24:44 GMT 37.299545 -93.605446 26,850 43 459 1152
2019-11-08 11:24:38 GMT 37.292175 -93.614265 26,750 43 457 1152
2019-11-08 11:24:33 GMT 37.283569 -93.624550 26,650 43 456 1152
2019-11-08 11:24:29 GMT 37.276245 -93.633316 26,550 43 456 1216
2019-11-08 11:24:22 GMT 37.267776 -93.643486 26,450 43 455 1216
2019-11-08 11:24:16 GMT 37.258270 -93.654808 26,325 43 454 1216
2019-11-08 11:24:12 GMT 37.251053 -93.663460 26,225 43 454 1216
2019-11-08 11:24:08 GMT 37.244305 -93.671585 26,150 43 452 1216
2019-11-08 11:24:02 GMT 37.235924 -93.681618 26,025 43 451 1152
2019-11-08 11:23:56 GMT 37.228317 -93.690765 25,925 43 451 1280
2019-11-08 11:23:52 GMT 37.220188 -93.700539 25,825 44 450 1344
2019-11-08 11:23:47 GMT 37.212067 -93.710342 25,700 44 449 1344
2019-11-08 11:23:41 GMT 37.205200 -93.718636 25,600 43 449 1216
2019-11-08 11:23:36 GMT 37.197098 -93.728340 25,475 43 447 1216
2019-11-08 11:23:30 GMT 37.188675 -93.738274 25,375 43 447 1216
2019-11-08 11:23:26 GMT 37.180805 -93.747833 25,275 44 446 1216
2019-11-08 11:23:21 GMT 37.174244 -93.756073 25,175 46 447 1280
2019-11-08 11:23:14 GMT 37.166061 -93.767082 25,050 47 447 1216
2019-11-08 11:23:10 GMT 37.159718 -93.775955 24,975 49 447 1152
2019-11-08 11:23:04 GMT 37.152008 -93.787476 24,850 51 448 1216
2019-11-08 11:23:00 GMT 37.145569 -93.797630 24,750 52 448 1216
2019-11-08 11:22:53 GMT 37.138321 -93.809624 24,625 54 448 1216
2019-11-08 11:22:49 GMT 37.133278 -93.818588 24,550 55 448 1216
2019-11-08 11:22:43 GMT 37.125824 -93.832710 24,425 58 449 1216
2019-11-08 11:22:38 GMT 37.121220 -93.842232 24,325 59 448 1280
2019-11-08 11:22:33 GMT 37.114746 -93.856087 24,200 59 447 1280
2019-11-08 11:22:29 GMT 37.110374 -93.865456 24,100 59 446 1280
2019-11-08 11:22:22 GMT 37.104134 -93.878830 23,975 59 446 1408
2019-11-08 11:22:17 GMT 37.099571 -93.888680 23,875 59 445 1408
2019-11-08 11:22:12 GMT 37.093334 -93.902000 23,750 59 444 1344
2019-11-08 11:22:08 GMT 37.088974 -93.911308 23,650 59 444 1344
2019-11-08 11:22:01 GMT 37.082474 -93.925392 23,500 59 443 1472
2019-11-08 11:21:57 GMT 37.078484 -93.933945 23,400 59 443 1472
2019-11-08 11:21:51 GMT 37.071457 -93.948990 23,250 59 442 1408
2019-11-08 11:21:47 GMT 37.067730 -93.956932 23,175 59 441 1344
2019-11-08 11:21:40 GMT 37.060703 -93.971916 23,025 59 440 1280
2019-11-08 11:21:37 GMT 37.056652 -93.980637 22,950 59 438 1216
2019-11-08 11:21:30 GMT 37.049206 -93.996513 22,800 59 437 1216
2019-11-08 11:21:26 GMT 37.046364 -94.002663 22,725 59 436 1280
2019-11-08 11:21:19 GMT 37.039429 -94.017471 22,575 59 434 1280
2019-11-08 11:21:16 GMT 37.035797 -94.025238 22,525 59 433 1280
2019-11-08 11:21:09 GMT 37.028366 -94.041039 22,375 59 432 1216
2019-11-08 11:21:05 GMT 37.025230 -94.047684 22,300 59 431 1152
2019-11-08 11:20:57 GMT 37.017223 -94.064819 22,175 59 428 1024
2019-11-08 11:20:54 GMT 37.014679 -94.070198 22,125 59 427 960
2019-11-08 11:20:45 GMT 37.004513 -94.091873 21,950 59 422 1216
2019-11-08 11:20:37 GMT 36.997345 -94.107155 21,775 59 420 1600
2019-11-08 11:20:34 GMT 36.993988 -94.114319 21,700 59 420 1728
2019-11-08 11:20:24 GMT 36.983986 -94.135635 21,400 59 419 1728
2019-11-08 11:20:13 GMT 36.973789 -94.157372 21,125 59 418 1408
2019-11-08 11:20:06 GMT 36.965836 -94.174278 20,925 59 415 1728
2019-11-08 11:20:02 GMT 36.963455 -94.179359 20,850 59 415 1792
2019-11-08 11:19:53 GMT 36.953384 -94.200752 20,550 59 415 1792
2019-11-08 11:19:42 GMT 36.943485 -94.221794 20,050 59 411 1664
2019-11-08 11:19:32 GMT 36.933563 -94.242943 19,950 59 411 1664
2019-11-08 11:19:21 GMT 36.923126 -94.265030 19,675 59 409 1472
2019-11-08 11:19:13 GMT 36.915272 -94.281624 19,500 59 406 1408
2019-11-08 11:19:10 GMT 36.913364 -94.285744 19,450 59 406 1408
2019-11-08 11:19:05 GMT 36.907425 -94.298225 19,300 59 403 1344
2019-11-08 11:19:01 GMT 36.903259 -94.307053 19,200 59 402 1408
2019-11-08 11:18:50 GMT 36.893673 -94.327477 18,950 59 398 1664
2019-11-08 11:18:40 GMT 36.883526 -94.348557 18,650 57 395 1728
2019-11-08 11:18:29 GMT 36.872864 -94.367065 17,400 26 372 2112
2019-11-08 11:18:18 GMT 36.859364 -94.384323 17,400 26 372 2112
2019-11-08 11:18:09 GMT 36.845306 -94.397568 17,700 32 376 2048
2019-11-08 11:17:57 GMT 36.829193 -94.408440 17,325 24 371 2240
2019-11-08 11:17:47 GMT 36.810654 -94.416786 16,875 16 367 2432
2019-11-08 11:17:38 GMT 36.797424 -94.420341 16,575 8 363 2112
2019-11-08 11:17:35 GMT 36.792755 -94.421143 16,475 7 362 1984
2019-11-08 11:17:26 GMT 36.777328 -94.422226 16,150 0 357 2112
2019-11-08 11:17:15 GMT 36.756454 -94.419762 15,700 352 349 2368
2019-11-08 11:17:07 GMT 36.745216 -94.417671 15,325 352 349 2368
2019-11-08 11:17:03 GMT 36.740433 -94.416786 15,325 352 349 2368
2019-11-08 11:16:54 GMT 36.724365 -94.413818 14,950 352 347 2240
2019-11-08 11:16:45 GMT 36.711777 -94.411469 14,650 352 346 2304
2019-11-08 11:16:42 GMT 36.707245 -94.410667 14,550 352 345 2304
2019-11-08 11:16:33 GMT 36.691078 -94.407677 14,150 352 344 2496
2019-11-08 11:16:24 GMT 36.676941 -94.405060 13,775 352 343 2496
2019-11-08 11:16:21 GMT 36.673435 -94.404404 13,675 352 343 2496
2019-11-08 11:16:14 GMT 36.662521 -94.402367 13,275 352 342 2496
2019-11-08 11:16:11 GMT 36.657990 -94.401512 13,250 352 342 2496
2019-11-08 11:16:08 GMT 36.650856 -94.400200 13,075 352 341 2560
2019-11-08 11:16:03 GMT 36.644619 -94.399033 12,900 352 341 2496
2019-11-08 11:15:57 GMT 36.634518 -94.397163 12,625 352 341 2560
2019-11-08 11:15:51 GMT 36.625114 -94.395409 12,475 352 341 2624
2019-11-08 11:15:42 GMT 36.611984 -94.392952 12,000 352 341 2688
2019-11-08 11:15:31 GMT 36.596054 -94.390015 11,550 352 341 2432
2019-11-08 11:15:19 GMT 36.575722 -94.386353 11,100 352 334 1920
2019-11-08 11:15:12 GMT 36.564331 -94.384232 10,850 352 332 2048
2019-11-08 11:15:08 GMT 36.559799 -94.383430 10,750 352 325 1664
2019-11-08 11:14:59 GMT 36.544418 -94.380684 10,475 352 321 1664
2019-11-08 11:14:50 GMT 36.532986 -94.378578 10,250 352 316 1600
2019-11-08 11:14:47 GMT 36.528625 -94.377769 10,175 352 311 1472
2019-11-08 11:14:41 GMT 36.519012 -94.375992 10,025 352 306 1344
2019-11-08 11:14:37 GMT 36.512505 -94.374779 9,925 352 302 1280
2019-11-08 11:14:29 GMT 36.503494 -94.373131 9,825 352 292 1024
2019-11-08 11:14:24 GMT 36.496628 -94.371872 9,725 352 288 1088
2019-11-08 11:14:20 GMT 36.490158 -94.370689 9,600 352 278 1664
2019-11-08 11:14:17 GMT 36.486374 -94.369987 9,525 352 275 1920
2019-11-08 11:14:06 GMT 36.473724 -94.367653 9,100 352 267 2560
2019-11-08 11:13:58 GMT 36.464172 -94.365868 8,775 352 263 2560
2019-11-08 11:13:55 GMT 36.459621 -94.365021 8,600 352 260 2944
2019-11-08 11:13:49 GMT 36.446724 -94.362625 7,950 352 261 3904
2019-11-08 11:13:38 GMT 36.440186 -94.361458 7,600 352 264 3520
2019-11-08 11:13:35 GMT 36.434418 -94.360374 7,325 352 263 3520
2019-11-08 11:13:28 GMT 36.427872 -94.359177 7,025 352 263 3264
2019-11-08 11:13:23 GMT 36.422424 -94.358192 6,800 352 261 2880
2019-11-08 11:13:17 GMT 36.415348 -94.356895 6,525 352 259 2816
2019-11-08 11:13:06 GMT 36.402592 -94.354446 5,975 352 255 3200
2019-11-08 11:12:57 GMT 36.390747 -94.352188 5,450 352 252 2496
2019-11-08 11:12:45 GMT 36.378571 -94.349998 5,100 353 242 1984
2019-11-08 11:12:36 GMT 36.367493 -94.348007 4,750 349 230 2112
2019-11-08 11:12:31 GMT 36.362091 -94.346642 4,550 348 224 2368
2019-11-08 11:12:25 GMT 36.357063 -94.345093 4,350 345 220 2624
2019-11-08 11:12:18 GMT 36.350327 -94.342461 4,050 339 215 2688
2019-11-08 11:12:14 GMT 36.346939 -94.340858 3,875 339 214 2688
2019-11-08 11:12:11 GMT 36.342545 -94.338684 3,650 339 210 3264
2019-11-08 11:12:05 GMT 36.337509 -94.336166 3,350 338 209 2880
2019-11-08 11:12:00 GMT 36.332996 -94.333870 3,125 338 208 2304
2019-11-08 11:11:53 GMT 36.327896 -94.331306 2,975 338 200 1664
2019-11-08 11:11:44 GMT 36.319405 -94.326981 2,675 338 188 1728

Making use of Plane Finder data

You are free to use the raw flight data, aircraft information and images provided in this report for your own purposes provided the data is correctly attributed to Plane Finder. We ask that you please credit Plane Finder and link to planefinder.net in close proximity to the content.

Optionally one of the following logos (no smaller then 150x24px) can be used and must link to planefinder.net

Embedding the Plane Finder map

You are welcome to embed the Plane Finder playback map on your website to offer visitors a more interactive experience. We suggest using the following HTML code:

<iframe src="//planefinder.net/data/report/AA4088-N270NN-7700-squawk-2019-11-08/map" width="800" height="600" seamless="seamless"></iframe>

Where our data comes from

Plane Finder has a global network of data feeds and antenna radars that receive data broadcast directly from aircraft. The primary technologies used are ADS-B and MLAT. We also show feeds from the FAA and a FLARM glider feed.

Click here to find out more about the Plane Finder network.

How we collect our data